Time,TemperatureF,DewpointF,PressureIn,WindDirection,WindDirectionDegrees,WindSpeedMPH,WindSpeedGustMPH,Humidity,HourlyPrecipIn,Conditions,Clouds,dailyrainin,SolarRadiationWatts/m^2,SoftwareType,DateUTC
2013-05-20 00:00:00,61.2,60.1,29.53,South,188,3.0,6.0,96,0.00,,,0.00,0,Wunderground v.1.15,2013-05-20 05:00:00,
2013-05-20 00:03:00,61.2,60.1,29.54,SW,217,5.0,6.0,96,0.00,,,0.00,0,Wunderground v.1.15,2013-05-20 05:03:00,
2013-05-20 00:05:00,61.3,60.2,29.55,WSW,254,10.0,10.0,96,0.00,,,0.00,0,Wunderground v.1.15,2013-05-20 05:05:00,
2013-05-20 00:08:00,61.4,60.2,29.56,West,259,9.0,10.0,96,0.00,,,0.00,0,Wunderground v.1.15,2013-05-20 05:08:00,
2013-05-20 00:09:00,61.4,60.2,29.56,WSW,238,7.0,10.0,96,0.00,,,0.00,0,Wunderground v.1.15,2013-05-20 05:09:00,
2013-05-20 00:10:00,61.4,60.2,29.56,SW,236,9.0,9.0,96,0.00,,,0.00,0,Wunderground v.1.15,2013-05-20 05:10:00,
2013-05-20 00:12:00,61.4,60.2,29.56,SW,225,9.0,10.0,96,0.00,,,0.00,0,Wunderground v.1.15,2013-05-20 05:12:00,
2013-05-20 00:13:00,61.3,60.2,29.56,SW,223,9.0,10.0,96,0.00,,,0.00,0,Wunderground v.1.15,2013-05-20 05:13:00,
2013-05-20 00:15:00,61.3,60.2,29.56,WSW,239,12.0,12.0,96,0.00,,,0.00,0,Wunderground v.1.15,2013-05-20 05:15:00,
2013-05-20 00:17:00,61.3,60.2,29.56,WSW,244,9.0,12.0,96,0.00,,,0.00,0,Wunderground v.1.15,2013-05-20 05:17:00,
2013-05-20 00:19:00,61.3,60.2,29.56,WSW,257,7.0,12.0,96,0.00,,,0.00,0,Wunderground v.1.15,2013-05-20 05:19:00,
2013-05-20 00:22:00,61.3,60.2,29.55,WSW,255,8.0,9.0,96,0.00,,,0.00,0,Wunderground v.1.15,2013-05-20 05:22:00,
2013-05-20 00:24:00,61.4,60.2,29.55,WSW,249,5.0,9.0,96,0.00,,,0.00,0,Wunderground v.1.15,2013-05-20 05:24:00,
2013-05-20 00:25:00,61.4,60.2,29.54,WSW,249,4.0,9.0,96,0.00,,,0.00,0,Wunderground v.1.15,2013-05-20 05:25:00,
2013-05-20 00:26:00,61.4,60.2,29.54,WSW,249,2.0,9.0,96,0.00,,,0.00,0,Wunderground v.1.15,2013-05-20 05:26:00,
2013-05-20 00:27:00,61.4,60.2,29.54,WSW,249,5.0,9.0,96,0.00,,,0.00,0,Wunderground v.1.15,2013-05-20 05:27:00,
2013-05-20 00:28:00,61.4,60.2,29.53,WSW,249,2.0,9.0,96,0.00,,,0.00,0,Wunderground v.1.15,2013-05-20 05:28:00,
2013-05-20 00:30:00,61.4,60.0,29.54,SW,232,2.0,4.0,95,0.00,,,0.00,0,Wunderground v.1.15,2013-05-20 05:30:00,
2013-05-20 00:34:00,61.3,60.2,29.53,SSW,200,4.0,4.0,96,0.00,,,0.00,0,Wunderground v.1.15,2013-05-20 05:34:00,
2013-05-20 00:35:00,61.3,60.2,29.53,SSW,200,2.0,4.0,96,0.00,,,0.00,0,Wunderground v.1.15,2013-05-20 05:35:00,
2013-05-20 00:36:00,61.3,60.2,29.53,SSW,194,3.0,4.0,96,0.00,,,0.00,0,Wunderground v.1.15,2013-05-20 05:36:00,
2013-05-20 00:37:00,61.3,60.2,29.53,SSW,194,3.0,4.0,96,0.00,,,0.00,0,Wunderground v.1.15,2013-05-20 05:37:00,
2013-05-20 00:40:00,61.3,60.2,29.53,SSW,193,2.0,3.0,96,0.00,,,0.00,0,Wunderground v.1.15,2013-05-20 05:40:00,
2013-05-20 00:42:00,61.3,60.2,29.52,SSE,153,4.0,4.0,96,0.00,,,0.00,0,Wunderground v.1.15,2013-05-20 05:42:00,
2013-05-20 00:43:00,61.3,60.2,29.52,SE,138,2.0,4.0,96,0.00,,,0.00,0,Wunderground v.1.15,2013-05-20 05:43:00,
2013-05-20 00:45:00,61.3,60.2,29.51,ESE,119,1.0,4.0,96,0.00,,,0.00,0,Wunderground v.1.15,2013-05-20 05:45:00,
2013-05-20 00:47:00,61.1,60.0,29.52,ESE,117,0.0,4.0,96,0.00,,,0.00,0,Wunderground v.1.15,2013-05-20 05:47:00,
2013-05-20 00:50:00,61.0,59.9,29.51,ESE,117,2.0,2.0,96,0.00,,,0.00,0,Wunderground v.1.15,2013-05-20 05:50:00,
2013-05-20 00:52:00,60.9,59.8,29.52,ESE,117,2.0,2.0,96,0.00,,,0.00,0,Wunderground v.1.15,2013-05-20 05:52:00,
2013-05-20 00:53:00,61.0,59.9,29.52,ESE,117,2.0,2.0,96,0.00,,,0.00,0,Wunderground v.1.15,2013-05-20 05:53:00,
2013-05-20 00:55:00,60.9,59.8,29.52,ESE,117,3.0,3.0,96,0.00,,,0.00,0,Wunderground v.1.15,2013-05-20 05:55:00,
2013-05-20 00:58:00,60.9,59.8,29.51,East,98,3.0,4.0,96,0.00,,,0.00,0,Wunderground v.1.15,2013-05-20 05:58:00,
2013-05-20 01:01:00,60.8,59.7,29.50,East,94,7.0,7.0,96,0.00,,,0.00,0,Wunderground v.1.15,2013-05-20 06:01:00,
2013-05-20 01:02:00,60.8,59.7,29.51,ESE,105,4.0,7.0,96,0.00,,,0.00,0,Wunderground v.1.15,2013-05-20 06:02:00,
2013-05-20 01:04:00,60.7,59.6,29.51,East,101,6.0,7.0,96,0.00,,,0.00,0,Wunderground v.1.15,2013-05-20 06:04:00,
2013-05-20 01:06:00,60.7,59.6,29.51,ESE,113,7.0,8.0,96,0.00,,,0.00,0,Wunderground v.1.15,2013-05-20 06:06:00,
2013-05-20 01:08:00,60.6,59.5,29.51,ESE,115,4.0,8.0,96,0.00,,,0.00,0,Wunderground v.1.15,2013-05-20 06:08:00,
2013-05-20 01:09:00,60.7,59.6,29.51,SE,130,5.0,8.0,96,0.00,,,0.00,0,Wunderground v.1.15,2013-05-20 06:09:00,
2013-05-20 01:11:00,60.6,59.5,29.51,SE,131,5.0,5.0,96,0.00,,,0.00,0,Wunderground v.1.15,2013-05-20 06:11:00,
2013-05-20 01:13:00,60.5,59.4,29.51,SE,139,4.0,5.0,96,0.00,,,0.00,0,Wunderground v.1.15,2013-05-20 06:13:00,
2013-05-20 01:15:00,60.5,59.4,29.51,SE,136,6.0,6.0,96,0.00,,,0.00,0,Wunderground v.1.15,2013-05-20 06:15:00,
2013-05-20 01:16:00,60.5,59.4,29.50,SE,138,7.0,7.0,96,0.00,,,0.00,0,Wunderground v.1.15,2013-05-20 06:16:00,
2013-05-20 01:17:00,60.5,59.4,29.50,SE,128,7.0,7.0,96,0.00,,,0.00,0,Wunderground v.1.15,2013-05-20 06:17:00,
2013-05-20 01:18:00,60.5,59.4,29.50,SE,131,6.0,7.0,96,0.00,,,0.00,0,Wunderground v.1.15,2013-05-20 06:18:00,
2013-05-20 01:19:00,60.4,59.3,29.50,SE,130,8.0,8.0,96,0.00,,,0.00,0,Wunderground v.1.15,2013-05-20 06:19:00,
2013-05-20 01:22:00,60.4,59.3,29.50,ESE,121,10.0,10.0,96,0.00,,,0.00,0,Wunderground v.1.15,2013-05-20 06:22:00,
2013-05-20 01:23:00,60.4,59.3,29.50,SE,128,8.0,10.0,96,0.00,,,0.00,0,Wunderground v.1.15,2013-05-20 06:23:00,
2013-05-20 01:24:00,60.4,59.3,29.50,ESE,121,8.0,10.0,96,0.00,,,0.00,0,Wunderground v.1.15,2013-05-20 06:24:00,
2013-05-20 01:26:00,60.4,59.3,29.50,SE,136,6.0,10.0,96,0.00,,,0.00,0,Wunderground v.1.15,2013-05-20 06:26:00,
2013-05-20 01:29:00,60.4,59.3,29.49,SE,125,8.0,10.0,96,0.00,,,0.00,0,Wunderground v.1.15,2013-05-20 06:29:00,
2013-05-20 01:30:00,60.4,59.3,29.50,SE,139,8.0,8.0,96,0.00,,,0.00,0,Wunderground v.1.15,2013-05-20 06:30:00,
2013-05-20 01:31:00,60.4,59.3,29.49,SE,134,8.0,8.0,96,0.00,,,0.00,0,Wunderground v.1.15,2013-05-20 06:31:00,
2013-05-20 01:33:00,60.4,59.3,29.50,SE,136,8.0,8.0,96,0.00,,,0.00,0,Wunderground v.1.15,2013-05-20 06:33:00,
2013-05-20 01:34:00,60.4,59.3,29.49,ESE,107,9.0,9.0,96,0.00,,,0.00,0,Wunderground v.1.15,2013-05-20 06:34:00,
2013-05-20 01:35:00,60.4,59.3,29.49,ESE,119,10.0,10.0,96,0.00,,,0.00,0,Wunderground v.1.15,2013-05-20 06:35:00,
2013-05-20 01:39:00,60.4,59.3,29.48,SE,124,7.0,12.0,96,0.00,,,0.00,0,Wunderground v.1.15,2013-05-20 06:39:00,
2013-05-20 01:40:00,60.4,59.3,29.48,East,98,9.0,9.0,96,0.00,,,0.00,0,Wunderground v.1.15,2013-05-20 06:40:00,
2013-05-20 01:42:00,60.4,59.3,29.47,ESE,117,8.0,9.0,96,0.00,,,0.00,0,Wunderground v.1.15,2013-05-20 06:42:00,
2013-05-20 01:45:00,60.3,59.2,29.47,ESE,121,7.0,10.0,96,0.00,,,0.00,0,Wunderground v.1.15,2013-05-20 06:45:00,
2013-05-20 01:50:00,60.3,59.2,29.46,ESE,116,12.0,12.0,96,0.00,,,0.00,0,Wunderground v.1.15,2013-05-20 06:50:00,
2013-05-20 01:51:00,60.3,59.2,29.46,ESE,116,11.0,12.0,96,0.00,,,0.00,0,Wunderground v.1.15,2013-05-20 06:51:00,
2013-05-20 01:53:00,60.2,59.1,29.46,SE,127,8.0,12.0,96,0.00,,,0.00,0,Wunderground v.1.15,2013-05-20 06:53:00,
2013-05-20 01:54:00,60.2,59.1,29.45,SE,132,11.0,12.0,96,0.00,,,0.00,0,Wunderground v.1.15,2013-05-20 06:54:00,
2013-05-20 01:56:00,60.2,59.1,29.45,SE,129,6.0,12.0,96,0.00,,,0.00,0,Wunderground v.1.15,2013-05-20 06:56:00,
2013-05-20 01:58:00,60.2,59.1,29.45,SE,124,6.0,13.0,96,0.00,,,0.00,0,Wunderground v.1.15,2013-05-20 06:58:00,
2013-05-20 02:01:00,60.2,59.1,29.44,SE,126,7.0,9.0,96,0.00,,,0.00,0,Wunderground v.1.15,2013-05-20 07:01:00,
2013-05-20 02:02:00,60.2,59.1,29.44,SE,134,8.0,9.0,96,0.00,,,0.00,0,Wunderground v.1.15,2013-05-20 07:02:00,
2013-05-20 02:03:00,60.2,59.1,29.45,ESE,113,7.0,9.0,96,0.00,,,0.00,0,Wunderground v.1.15,2013-05-20 07:03:00,
2013-05-20 02:07:00,60.2,59.1,29.46,SE,128,10.0,10.0,96,0.00,,,0.00,0,Wunderground v.1.15,2013-05-20 07:07:00,
2013-05-20 02:08:00,60.2,59.1,29.46,ESE,120,5.0,10.0,96,0.00,,,0.00,0,Wunderground v.1.15,2013-05-20 07:08:00,
2013-05-20 02:11:00,60.3,59.2,29.48,South,172,8.0,8.0,96,0.00,,,0.00,0,Wunderground v.1.15,2013-05-20 07:11:00,
2013-05-20 02:13:00,60.3,59.2,29.48,SSE,159,6.0,8.0,96,0.00,,,0.00,0,Wunderground v.1.15,2013-05-20 07:13:00,
2013-05-20 02:16:00,60.3,59.2,29.48,SE,142,9.0,9.0,96,0.00,,,0.00,0,Wunderground v.1.15,2013-05-20 07:16:00,
2013-05-20 02:17:00,60.4,59.3,29.48,SE,132,11.0,11.0,96,0.00,,,0.00,0,Wunderground v.1.15,2013-05-20 07:17:00,
2013-05-20 02:19:00,60.4,59.3,29.48,SE,137,8.0,11.0,96,0.00,,,0.00,0,Wunderground v.1.15,2013-05-20 07:19:00,
2013-05-20 02:21:00,60.4,59.3,29.48,SE,127,6.0,7.0,96,0.00,,,0.00,0,Wunderground v.1.15,2013-05-20 07:21:00,
2013-05-20 02:22:00,60.4,59.3,29.48,SE,141,7.0,7.0,96,0.00,,,0.00,0,Wunderground v.1.15,2013-05-20 07:22:00,
2013-05-20 02:24:00,60.3,59.2,29.47,SSE,147,5.0,8.0,96,0.00,,,0.00,0,Wunderground v.1.15,2013-05-20 07:24:00,
2013-05-20 02:25:00,60.3,59.2,29.47,SE,136,6.0,8.0,96,0.00,,,0.00,0,Wunderground v.1.15,2013-05-20 07:25:00,
2013-05-20 02:27:00,60.3,59.2,29.47,SE,136,5.0,8.0,96,0.00,,,0.00,0,Wunderground v.1.15,2013-05-20 07:27:00,
2013-05-20 02:29:00,60.2,59.1,29.47,SSE,148,7.0,11.0,96,0.00,,,0.00,0,Wunderground v.1.15,2013-05-20 07:29:00,
2013-05-20 02:32:00,60.2,59.1,29.47,SSE,152,10.0,10.0,96,0.00,,,0.00,0,Wunderground v.1.15,2013-05-20 07:32:00,
2013-05-20 02:35:00,60.2,59.1,29.46,SE,144,10.0,15.0,96,0.00,,,0.00,0,Wunderground v.1.15,2013-05-20 07:35:00,
2013-05-20 02:38:00,60.2,59.1,29.45,SE,134,9.0,15.0,96,0.00,,,0.00,0,Wunderground v.1.15,2013-05-20 07:38:00,
2013-05-20 02:41:00,60.2,59.1,29.45,SE,132,12.0,12.0,96,0.00,,,0.00,0,Wunderground v.1.15,2013-05-20 07:41:00,
2013-05-20 02:42:00,60.3,59.2,29.45,SE,142,12.0,12.0,96,0.00,,,0.00,0,Wunderground v.1.15,2013-05-20 07:42:00,
2013-05-20 02:43:00,60.3,59.2,29.45,SSE,155,12.0,12.0,96,0.00,,,0.00,0,Wunderground v.1.15,2013-05-20 07:43:00,
2013-05-20 02:44:00,60.3,59.2,29.45,SSE,153,9.0,12.0,96,0.00,,,0.00,0,Wunderground v.1.15,2013-05-20 07:44:00,
2013-05-20 02:45:00,60.3,59.2,29.46,SSE,165,7.0,12.0,96,0.00,,,0.00,0,Wunderground v.1.15,2013-05-20 07:45:00,
2013-05-20 02:47:00,60.3,59.2,29.46,SSE,161,11.0,12.0,96,0.00,,,0.00,0,Wunderground v.1.15,2013-05-20 07:47:00,
2013-05-20 02:48:00,60.3,59.2,29.46,SSE,154,14.0,14.0,96,0.00,,,0.00,0,Wunderground v.1.15,2013-05-20 07:48:00,
2013-05-20 02:49:00,60.3,59.2,29.46,SSE,157,8.0,14.0,96,0.00,,,0.00,0,Wunderground v.1.15,2013-05-20 07:49:00,
2013-05-20 02:50:00,60.3,59.2,29.46,SSE,157,7.0,14.0,96,0.00,,,0.00,0,Wunderground v.1.15,2013-05-20 07:50:00,
2013-05-20 02:51:00,60.3,59.2,29.46,SSE,166,5.0,9.0,96,0.00,,,0.00,0,Wunderground v.1.15,2013-05-20 07:51:00,
2013-05-20 02:52:00,60.3,59.2,29.46,SSE,161,7.0,10.0,96,0.00,,,0.00,0,Wunderground v.1.15,2013-05-20 07:52:00,
2013-05-20 02:54:00,60.4,59.3,29.46,South,172,11.0,11.0,96,0.00,,,0.00,0,Wunderground v.1.15,2013-05-20 07:54:00,
2013-05-20 02:55:00,60.4,59.3,29.46,SSE,165,7.0,11.0,96,0.00,,,0.00,0,Wunderground v.1.15,2013-05-20 07:55:00,
2013-05-20 02:56:00,60.4,59.3,29.46,SSE,167,6.0,11.0,96,0.00,,,0.00,0,Wunderground v.1.15,2013-05-20 07:56:00,
2013-05-20 02:58:00,60.4,59.3,29.46,SSE,159,12.0,12.0,96,0.00,,,0.00,0,Wunderground v.1.15,2013-05-20 07:58:00,
2013-05-20 03:00:00,60.4,59.3,29.46,SSE,165,10.0,10.0,96,0.00,,,0.00,0,Wunderground v.1.15,2013-05-20 08:00:00,
2013-05-20 03:01:00,60.4,59.3,29.46,SSE,163,9.0,10.0,96,0.00,,,0.00,0,Wunderground v.1.15,2013-05-20 08:01:00,
2013-05-20 03:02:00,60.4,59.3,29.46,SSE,168,8.0,10.0,96,0.00,,,0.00,0,Wunderground v.1.15,2013-05-20 08:02:00,
2013-05-20 03:03:00,60.5,59.4,29.46,SSE,163,8.0,10.0,96,0.00,,,0.00,0,Wunderground v.1.15,2013-05-20 08:03:00,
2013-05-20 03:04:00,60.5,59.4,29.46,SSE,165,6.0,10.0,96,0.00,,,0.00,0,Wunderground v.1.15,2013-05-20 08:04:00,
2013-05-20 03:06:00,60.5,59.4,29.46,SSE,152,12.0,12.0,96,0.00,,,0.00,0,Wunderground v.1.15,2013-05-20 08:06:00,
2013-05-20 03:08:00,60.5,59.4,29.46,South,170,12.0,12.0,96,0.00,,,0.00,0,Wunderground v.1.15,2013-05-20 08:08:00,
2013-05-20 03:10:00,60.5,59.4,29.46,SE,128,9.0,9.0,96,0.00,,,0.00,0,Wunderground v.1.15,2013-05-20 08:10:00,
2013-05-20 03:13:00,60.5,59.4,29.45,SSE,148,9.0,10.0,96,0.00,,,0.00,0,Wunderground v.1.15,2013-05-20 08:13:00,
2013-05-20 03:14:00,60.5,59.4,29.45,SE,146,11.0,12.0,96,0.00,,,0.00,0,Wunderground v.1.15,2013-05-20 08:14:00,
2013-05-20 03:16:00,60.5,59.4,29.45,SSE,162,9.0,12.0,96,0.00,,,0.00,0,Wunderground v.1.15,2013-05-20 08:16:00,
2013-05-20 03:17:00,60.5,59.4,29.45,SSE,150,9.0,12.0,96,0.00,,,0.00,0,Wunderground v.1.15,2013-05-20 08:17:00,
2013-05-20 03:19:00,60.5,59.4,29.45,SSE,168,6.0,12.0,96,0.00,,,0.00,0,Wunderground v.1.15,2013-05-20 08:19:00,
2013-05-20 03:20:00,60.5,59.4,29.45,SSE,161,7.0,8.0,96,0.00,,,0.00,0,Wunderground v.1.15,2013-05-20 08:20:00,
2013-05-20 03:24:00,60.4,59.3,29.45,South,180,5.0,12.0,96,0.00,,,0.00,0,Wunderground v.1.15,2013-05-20 08:24:00,
2013-05-20 03:25:00,60.4,59.3,29.45,South,173,10.0,12.0,96,0.00,,,0.00,0,Wunderground v.1.15,2013-05-20 08:25:00,
2013-05-20 03:28:00,60.4,59.3,29.45,SSE,157,6.0,12.0,96,0.00,,,0.00,0,Wunderground v.1.15,2013-05-20 08:28:00,
2013-05-20 03:29:00,60.4,59.3,29.46,SSE,167,6.0,12.0,96,0.00,,,0.00,0,Wunderground v.1.15,2013-05-20 08:29:00,
2013-05-20 03:30:00,60.4,59.3,29.46,SSE,161,9.0,9.0,96,0.00,,,0.00,0,Wunderground v.1.15,2013-05-20 08:30:00,
2013-05-20 03:31:00,60.3,59.2,29.46,South,173,10.0,10.0,96,0.00,,,0.00,0,Wunderground v.1.15,2013-05-20 08:31:00,
2013-05-20 03:33:00,60.3,58.9,29.45,SSE,165,8.0,10.0,95,0.00,,,0.00,0,Wunderground v.1.15,2013-05-20 08:33:00,
2013-05-20 03:35:00,60.3,59.2,29.46,South,175,7.0,10.0,96,0.00,,,0.00,0,Wunderground v.1.15,2013-05-20 08:35:00,
2013-05-20 03:36:00,60.3,59.2,29.46,South,180,8.0,10.0,96,0.00,,,0.00,0,Wunderground v.1.15,2013-05-20 08:36:00,
2013-05-20 03:37:00,60.3,59.2,29.46,South,175,6.0,10.0,96,0.00,,,0.00,0,Wunderground v.1.15,2013-05-20 08:37:00,
2013-05-20 03:40:00,60.2,59.1,29.46,South,174,6.0,7.0,96,0.00,,,0.00,0,Wunderground v.1.15,2013-05-20 08:40:00,
2013-05-20 03:41:00,60.2,59.1,29.46,South,173,5.0,7.0,96,0.00,,,0.00,0,Wunderground v.1.15,2013-05-20 08:41:00,
2013-05-20 03:42:00,60.2,59.1,29.46,South,176,7.0,8.0,96,0.00,,,0.00,0,Wunderground v.1.15,2013-05-20 08:42:00,
2013-05-20 03:43:00,60.2,59.1,29.46,South,178,4.0,9.0,96,0.00,,,0.00,0,Wunderground v.1.15,2013-05-20 08:43:00,
2013-05-20 03:44:00,60.2,59.1,29.46,South,177,6.0,9.0,96,0.00,,,0.00,0,Wunderground v.1.15,2013-05-20 08:44:00,
2013-05-20 03:46:00,60.2,59.1,29.46,SSW,194,7.0,9.0,96,0.00,,,0.00,0,Wunderground v.1.15,2013-05-20 08:46:00,
2013-05-20 03:48:00,60.2,59.1,29.46,South,180,6.0,9.0,96,0.00,,,0.00,0,Wunderground v.1.15,2013-05-20 08:48:00,
2013-05-20 03:49:00,60.2,59.1,29.46,SSW,193,4.0,9.0,96,0.00,,,0.00,0,Wunderground v.1.15,2013-05-20 08:49:00,
2013-05-20 03:50:00,60.2,59.1,29.46,South,183,6.0,9.0,96,0.00,,,0.00,0,Wunderground v.1.15,2013-05-20 08:50:00,
2013-05-20 03:51:00,60.1,59.0,29.46,SSW,198,5.0,6.0,96,0.00,,,0.00,0,Wunderground v.1.15,2013-05-20 08:51:00,
2013-05-20 03:53:00,60.0,58.9,29.46,SSW,196,5.0,6.0,96,0.00,,,0.00,0,Wunderground v.1.15,2013-05-20 08:53:00,
2013-05-20 03:55:00,60.0,58.9,29.46,SSW,198,7.0,8.0,96,0.00,,,0.00,0,Wunderground v.1.15,2013-05-20 08:55:00,
2013-05-20 03:56:00,60.0,58.9,29.47,SSW,192,4.0,8.0,96,0.00,,,0.00,0,Wunderground v.1.15,2013-05-20 08:56:00,
2013-05-20 03:58:00,60.0,58.9,29.47,SSW,194,6.0,9.0,96,0.00,,,0.00,0,Wunderground v.1.15,2013-05-20 08:58:00,
2013-05-20 04:01:00,60.0,58.9,29.47,SSW,192,5.0,7.0,96,0.00,,,0.00,0,Wunderground v.1.15,2013-05-20 09:01:00,
2013-05-20 04:03:00,60.0,58.9,29.47,SSW,194,7.0,8.0,96,0.00,,,0.00,0,Wunderground v.1.15,2013-05-20 09:03:00,
2013-05-20 04:06:00,60.1,59.0,29.46,South,184,7.0,10.0,96,0.00,,,0.00,0,Wunderground v.1.15,2013-05-20 09:06:00,
2013-05-20 04:07:00,60.1,59.0,29.46,South,185,5.0,10.0,96,0.00,,,0.00,0,Wunderground v.1.15,2013-05-20 09:07:00,
2013-05-20 04:08:00,60.1,59.0,29.46,SSW,199,8.0,10.0,96,0.00,,,0.00,0,Wunderground v.1.15,2013-05-20 09:08:00,
2013-05-20 04:10:00,60.1,59.0,29.46,SSW,197,9.0,11.0,96,0.00,,,0.00,0,Wunderground v.1.15,2013-05-20 09:10:00,
2013-05-20 04:12:00,60.2,59.1,29.46,South,190,6.0,9.0,96,0.00,,,0.00,0,Wunderground v.1.15,2013-05-20 09:12:00,
2013-05-20 04:13:00,60.2,59.1,29.46,South,189,5.0,9.0,96,0.00,,,0.00,0,Wunderground v.1.15,2013-05-20 09:13:00,
2013-05-20 04:14:00,60.2,59.1,29.45,South,190,7.0,10.0,96,0.00,,,0.00,0,Wunderground v.1.15,2013-05-20 09:14:00,
2013-05-20 04:15:00,60.2,59.1,29.45,SSW,192,7.0,10.0,96,0.00,,,0.00,0,Wunderground v.1.15,2013-05-20 09:15:00,
2013-05-20 04:18:00,60.2,58.8,29.45,SSW,199,6.0,10.0,95,0.00,,,0.00,0,Wunderground v.1.15,2013-05-20 09:18:00,
2013-05-20 04:20:00,60.2,58.8,29.45,SSW,193,7.0,10.0,95,0.00,,,0.00,0,Wunderground v.1.15,2013-05-20 09:20:00,
2013-05-20 04:21:00,60.2,58.8,29.45,SSW,194,7.0,10.0,95,0.00,,,0.00,0,Wunderground v.1.15,2013-05-20 09:21:00,
2013-05-20 04:22:00,60.2,58.8,29.45,SSW,193,7.0,10.0,95,0.00,,,0.00,0,Wunderground v.1.15,2013-05-20 09:22:00,
2013-05-20 04:23:00,60.2,58.8,29.45,South,187,7.0,10.0,95,0.00,,,0.00,0,Wunderground v.1.15,2013-05-20 09:23:00,
2013-05-20 04:24:00,60.2,58.8,29.46,South,191,13.0,13.0,95,0.00,,,0.00,0,Wunderground v.1.15,2013-05-20 09:24:00,
2013-05-20 04:26:00,60.2,58.8,29.46,South,189,9.0,13.0,95,0.00,,,0.00,0,Wunderground v.1.15,2013-05-20 09:26:00,
2013-05-20 04:27:00,60.2,58.8,29.46,SSW,192,9.0,13.0,95,0.00,,,0.00,0,Wunderground v.1.15,2013-05-20 09:27:00,
2013-05-20 04:29:00,60.2,58.8,29.46,South,191,8.0,13.0,95,0.00,,,0.00,0,Wunderground v.1.15,2013-05-20 09:29:00,
2013-05-20 04:30:00,60.2,58.8,29.46,South,188,7.0,8.0,95,0.00,,,0.00,0,Wunderground v.1.15,2013-05-20 09:30:00,
2013-05-20 04:32:00,60.2,58.8,29.47,SSW,193,5.0,8.0,95,0.00,,,0.00,0,Wunderground v.1.15,2013-05-20 09:32:00,
2013-05-20 04:34:00,60.1,58.7,29.46,South,183,7.0,9.0,95,0.00,,,0.00,0,Wunderground v.1.15,2013-05-20 09:34:00,
2013-05-20 04:36:00,60.1,58.7,29.46,South,191,9.0,11.0,95,0.00,,,0.00,0,Wunderground v.1.15,2013-05-20 09:36:00,
2013-05-20 04:37:00,60.1,58.7,29.46,South,183,6.0,11.0,95,0.00,,,0.00,0,Wunderground v.1.15,2013-05-20 09:37:00,
2013-05-20 04:38:00,60.1,58.7,29.46,South,189,7.0,11.0,95,0.00,,,0.00,0,Wunderground v.1.15,2013-05-20 09:38:00,
2013-05-20 04:40:00,60.0,58.6,29.46,South,181,8.0,8.0,95,0.00,,,0.00,0,Wunderground v.1.15,2013-05-20 09:40:00,
2013-05-20 04:42:00,60.0,58.6,29.46,SSW,195,7.0,10.0,95,0.00,,,0.00,0,Wunderground v.1.15,2013-05-20 09:42:00,
2013-05-20 04:43:00,60.1,58.7,29.46,South,188,6.0,10.0,95,0.00,,,0.00,0,Wunderground v.1.15,2013-05-20 09:43:00,
2013-05-20 04:44:00,60.0,58.6,29.46,South,185,7.0,10.0,95,0.00,,,0.00,0,Wunderground v.1.15,2013-05-20 09:44:00,
2013-05-20 04:45:00,60.0,58.6,29.47,South,188,8.0,10.0,95,0.00,,,0.00,0,Wunderground v.1.15,2013-05-20 09:45:00,
2013-05-20 04:46:00,60.0,58.6,29.47,South,190,9.0,10.0,95,0.00,,,0.00,0,Wunderground v.1.15,2013-05-20 09:46:00,
2013-05-20 04:48:00,60.0,58.6,29.47,SSW,199,7.0,10.0,95,0.00,,,0.00,0,Wunderground v.1.15,2013-05-20 09:48:00,
2013-05-20 04:49:00,60.0,58.6,29.47,SSW,192,7.0,10.0,95,0.00,,,0.00,0,Wunderground v.1.15,2013-05-20 09:49:00,
2013-05-20 04:50:00,60.0,58.6,29.47,South,186,9.0,9.0,95,0.00,,,0.00,0,Wunderground v.1.15,2013-05-20 09:50:00,
2013-05-20 04:51:00,60.0,58.6,29.47,South,186,5.0,9.0,95,0.00,,,0.00,0,Wunderground v.1.15,2013-05-20 09:51:00,
2013-05-20 04:54:00,59.9,58.5,29.47,South,191,7.0,9.0,95,0.00,,,0.00,0,Wunderground v.1.15,2013-05-20 09:54:00,
2013-05-20 04:55:00,59.9,58.5,29.47,SSW,197,6.0,9.0,95,0.00,,,0.00,0,Wunderground v.1.15,2013-05-20 09:55:00,
2013-05-20 04:57:00,59.9,58.5,29.47,South,190,5.0,9.0,95,0.00,,,0.00,0,Wunderground v.1.15,2013-05-20 09:57:00,
2013-05-20 04:58:00,59.9,58.5,29.47,South,177,7.0,9.0,95,0.00,,,0.00,0,Wunderground v.1.15,2013-05-20 09:58:00,
2013-05-20 05:00:00,59.9,58.5,29.47,South,186,6.0,7.0,95,0.00,,,0.00,0,Wunderground v.1.15,2013-05-20 10:00:00,
2013-05-20 05:01:00,59.9,58.2,29.47,SSW,199,7.0,8.0,94,0.00,,,0.00,0,Wunderground v.1.15,2013-05-20 10:01:00,
2013-05-20 05:02:00,59.9,58.5,29.47,South,184,5.0,9.0,95,0.00,,,0.00,0,Wunderground v.1.15,2013-05-20 10:02:00,
2013-05-20 05:05:00,59.9,58.2,29.48,South,188,11.0,11.0,94,0.00,,,0.00,0,Wunderground v.1.15,2013-05-20 10:05:00,
2013-05-20 05:06:00,59.9,58.2,29.48,South,180,6.0,11.0,94,0.00,,,0.00,0,Wunderground v.1.15,2013-05-20 10:06:00,
2013-05-20 05:07:00,59.9,58.2,29.48,South,184,9.0,11.0,94,0.00,,,0.00,0,Wunderground v.1.15,2013-05-20 10:07:00,
2013-05-20 05:08:00,59.9,58.2,29.48,South,180,9.0,11.0,94,0.00,,,0.00,0,Wunderground v.1.15,2013-05-20 10:08:00,
2013-05-20 05:10:00,60.0,58.3,29.48,South,178,5.0,8.0,94,0.00,,,0.00,0,Wunderground v.1.15,2013-05-20 10:10:00,
2013-05-20 05:12:00,60.0,58.3,29.48,South,173,7.0,9.0,94,0.00,,,0.00,0,Wunderground v.1.15,2013-05-20 10:12:00,
2013-05-20 05:13:00,60.0,58.3,29.48,SSE,168,10.0,11.0,94,0.00,,,0.00,0,Wunderground v.1.15,2013-05-20 10:13:00,
2013-05-20 05:15:00,60.0,58.3,29.48,South,173,8.0,11.0,94,0.00,,,0.00,0,Wunderground v.1.15,2013-05-20 10:15:00,
2013-05-20 05:18:00,60.0,58.3,29.48,South,178,7.0,11.0,94,0.00,,,0.00,0,Wunderground v.1.15,2013-05-20 10:18:00,
2013-05-20 05:19:00,60.0,58.3,29.48,South,174,6.0,11.0,94,0.00,,,0.00,0,Wunderground v.1.15,2013-05-20 10:19:00,
2013-05-20 05:21:00,60.0,58.3,29.48,South,180,9.0,10.0,94,0.00,,,0.00,0,Wunderground v.1.15,2013-05-20 10:21:00,
2013-05-20 05:22:00,60.0,58.3,29.48,South,170,5.0,11.0,94,0.00,,,0.00,0,Wunderground v.1.15,2013-05-20 10:22:00,
2013-05-20 05:23:00,59.9,58.2,29.49,South,178,9.0,11.0,94,0.00,,,0.00,0,Wunderground v.1.15,2013-05-20 10:23:00,
2013-05-20 05:24:00,60.0,58.3,29.49,South,172,7.0,11.0,94,0.00,,,0.00,0,Wunderground v.1.15,2013-05-20 10:24:00,
2013-05-20 05:26:00,59.9,58.2,29.49,South,181,10.0,11.0,94,0.00,,,0.00,0,Wunderground v.1.15,2013-05-20 10:26:00,
2013-05-20 05:28:00,59.9,58.2,29.49,South,185,8.0,11.0,94,0.00,,,0.00,0,Wunderground v.1.15,2013-05-20 10:28:00,
2013-05-20 05:29:00,59.9,58.2,29.49,SSE,167,7.0,11.0,94,0.00,,,0.00,0,Wunderground v.1.15,2013-05-20 10:29:00,
2013-05-20 05:30:00,59.9,58.2,29.49,South,171,8.0,8.0,94,0.00,,,0.00,0,Wunderground v.1.15,2013-05-20 10:30:00,
2013-05-20 05:32:00,59.8,58.1,29.49,South,174,8.0,8.0,94,0.00,,,0.00,0,Wunderground v.1.15,2013-05-20 10:32:00,
2013-05-20 05:34:00,59.8,57.8,29.49,South,177,12.0,12.0,93,0.00,,,0.00,0,Wunderground v.1.15,2013-05-20 10:34:00,
2013-05-20 05:35:00,59.8,57.8,29.49,South,182,8.0,12.0,93,0.00,,,0.00,0,Wunderground v.1.15,2013-05-20 10:35:00,
2013-05-20 05:37:00,59.8,57.8,29.49,South,179,10.0,12.0,93,0.00,,,0.00,0,Wunderground v.1.15,2013-05-20 10:37:00,
2013-05-20 05:39:00,59.8,57.8,29.49,SSW,198,7.0,12.0,93,0.00,,,0.00,0,Wunderground v.1.15,2013-05-20 10:39:00,
2013-05-20 05:42:00,59.8,57.8,29.49,South,191,8.0,10.0,93,0.00,,,0.00,0,Wunderground v.1.15,2013-05-20 10:42:00,
2013-05-20 05:43:00,59.8,57.8,29.49,South,184,7.0,12.0,93,0.00,,,0.00,0,Wunderground v.1.15,2013-05-20 10:43:00,
2013-05-20 05:44:00,59.8,57.8,29.49,South,183,5.0,12.0,93,0.00,,,0.00,0,Wunderground v.1.15,2013-05-20 10:44:00,
2013-05-20 05:46:00,59.7,57.7,29.49,South,188,9.0,12.0,93,0.00,,,0.00,0,Wunderground v.1.15,2013-05-20 10:46:00,
2013-05-20 05:47:00,59.7,57.7,29.49,SSE,165,9.0,12.0,93,0.00,,,0.00,0,Wunderground v.1.15,2013-05-20 10:47:00,
2013-05-20 05:48:00,59.7,57.7,29.49,SSE,165,9.0,12.0,93,0.00,,,0.00,0,Wunderground v.1.15,2013-05-20 10:48:00,
2013-05-20 05:51:00,59.7,57.7,29.49,South,175,4.0,9.0,93,0.00,,,0.00,0,Wunderground v.1.15,2013-05-20 10:51:00,
2013-05-20 05:53:00,59.7,57.7,29.50,SSE,168,9.0,11.0,93,0.00,,,0.00,0,Wunderground v.1.15,2013-05-20 10:53:00,
2013-05-20 05:54:00,59.7,57.7,29.50,SSE,165,5.0,11.0,93,0.00,,,0.00,0,Wunderground v.1.15,2013-05-20 10:54:00,
2013-05-20 05:58:00,59.7,57.7,29.50,South,171,6.0,11.0,93,0.00,,,0.00,5,Wunderground v.1.15,2013-05-20 10:58:00,
2013-05-20 05:59:00,59.7,57.7,29.50,South,169,7.0,11.0,93,0.00,,,0.00,5,Wunderground v.1.15,2013-05-20 10:59:00,
2013-05-20 06:01:00,59.6,57.6,29.50,SSE,165,7.0,9.0,93,0.00,,,0.00,7,Wunderground v.1.15,2013-05-20 11:01:00,
2013-05-20 06:04:00,59.6,57.6,29.50,South,173,7.0,12.0,93,0.00,,,0.00,11,Wunderground v.1.15,2013-05-20 11:04:00,
2013-05-20 06:05:00,59.7,57.7,29.50,South,175,9.0,12.0,93,0.00,,,0.00,11,Wunderground v.1.15,2013-05-20 11:05:00,
2013-05-20 06:06:00,59.7,57.7,29.50,South,173,10.0,12.0,93,0.00,,,0.00,12,Wunderground v.1.15,2013-05-20 11:06:00,
2013-05-20 06:09:00,59.7,57.7,29.50,South,175,10.0,12.0,93,0.00,,,0.00,16,Wunderground v.1.15,2013-05-20 11:09:00,
2013-05-20 06:11:00,59.7,57.7,29.50,South,173,8.0,9.0,93,0.00,,,0.00,16,Wunderground v.1.15,2013-05-20 11:11:00,
2013-05-20 06:12:00,59.7,57.7,29.50,South,171,11.0,11.0,93,0.00,,,0.00,16,Wunderground v.1.15,2013-05-20 11:12:00,
2013-05-20 06:15:00,59.8,57.8,29.50,South,178,11.0,12.0,93,0.00,,,0.00,19,Wunderground v.1.15,2013-05-20 11:15:00,
2013-05-20 06:16:00,59.8,57.8,29.50,SSE,159,7.0,12.0,93,0.00,,,0.00,19,Wunderground v.1.15,2013-05-20 11:16:00,
2013-05-20 06:17:00,59.8,57.5,29.50,South,182,8.0,12.0,92,0.00,,,0.00,21,Wunderground v.1.15,2013-05-20 11:17:00,
2013-05-20 06:18:00,59.8,57.5,29.50,South,184,11.0,12.0,92,0.00,,,0.00,21,Wunderground v.1.15,2013-05-20 11:18:00,
2013-05-20 06:19:00,59.8,57.5,29.50,SSW,192,7.0,12.0,92,0.00,,,0.00,23,Wunderground v.1.15,2013-05-20 11:19:00,
2013-05-20 06:21:00,59.8,57.5,29.50,South,191,11.0,11.0,92,0.00,,,0.00,26,Wunderground v.1.15,2013-05-20 11:21:00,
2013-05-20 06:22:00,59.8,57.5,29.50,South,176,9.0,11.0,92,0.00,,,0.00,26,Wunderground v.1.15,2013-05-20 11:22:00,
2013-05-20 06:24:00,59.9,57.6,29.50,SSE,165,10.0,12.0,92,0.00,,,0.00,37,Wunderground v.1.15,2013-05-20 11:24:00,
2013-05-20 06:26:00,59.9,57.6,29.50,South,185,7.0,12.0,92,0.00,,,0.00,37,Wunderground v.1.15,2013-05-20 11:26:00,
2013-05-20 06:28:00,60.0,57.7,29.49,SSE,161,8.0,12.0,92,0.00,,,0.00,69,Wunderground v.1.15,2013-05-20 11:28:00,
2013-05-20 06:29:00,60.1,57.8,29.49,South,173,8.0,12.0,92,0.00,,,0.00,70,Wunderground v.1.15,2013-05-20 11:29:00,
2013-05-20 06:31:00,60.1,57.8,29.49,South,173,6.0,9.0,92,0.00,,,0.00,63,Wunderground v.1.15,2013-05-20 11:31:00,
2013-05-20 06:32:00,60.3,57.7,29.49,South,182,9.0,10.0,91,0.00,,,0.00,63,Wunderground v.1.15,2013-05-20 11:32:00,
2013-05-20 06:34:00,60.4,57.8,29.49,South,178,12.0,12.0,91,0.00,,,0.00,65,Wunderground v.1.15,2013-05-20 11:34:00,
2013-05-20 06:35:00,60.4,57.8,29.49,South,180,11.0,12.0,91,0.00,,,0.00,65,Wunderground v.1.15,2013-05-20 11:35:00,
2013-05-20 06:38:00,60.5,57.9,29.49,South,179,10.0,12.0,91,0.00,,,0.00,56,Wunderground v.1.15,2013-05-20 11:38:00,
2013-05-20 06:39:00,60.5,57.9,29.49,South,177,10.0,12.0,91,0.00,,,0.00,53,Wunderground v.1.15,2013-05-20 11:39:00,
2013-05-20 06:40:00,60.6,58.0,29.49,South,183,7.0,8.0,91,0.00,,,0.00,51,Wunderground v.1.15,2013-05-20 11:40:00,
2013-05-20 06:41:00,60.6,58.0,29.49,South,182,7.0,9.0,91,0.00,,,0.00,51,Wunderground v.1.15,2013-05-20 11:41:00,
2013-05-20 06:44:00,60.6,57.7,29.49,South,184,4.0,11.0,90,0.00,,,0.00,49,Wunderground v.1.15,2013-05-20 11:44:00,
2013-05-20 06:45:00,60.6,57.7,29.49,South,181,5.0,11.0,90,0.00,,,0.00,53,Wunderground v.1.15,2013-05-20 11:45:00,
2013-05-20 06:46:00,60.6,58.0,29.49,South,178,7.0,11.0,91,0.00,,,0.00,56,Wunderground v.1.15,2013-05-20 11:46:00,
2013-05-20 06:47:00,60.5,57.9,29.49,South,180,7.0,11.0,91,0.00,,,0.00,54,Wunderground v.1.15,2013-05-20 11:47:00,
2013-05-20 06:50:00,60.5,57.9,29.49,South,190,7.0,11.0,91,0.00,,,0.00,49,Wunderground v.1.15,2013-05-20 11:50:00,
2013-05-20 06:51:00,60.5,57.9,29.49,SSW,196,7.0,8.0,91,0.00,,,0.00,49,Wunderground v.1.15,2013-05-20 11:51:00,
2013-05-20 06:52:00,60.5,57.9,29.49,SSW,199,6.0,8.0,91,0.00,,,0.00,63,Wunderground v.1.15,2013-05-20 11:52:00,
2013-05-20 06:54:00,60.5,57.9,29.50,SSW,206,7.0,8.0,91,0.00,,,0.00,74,Wunderground v.1.15,2013-05-20 11:54:00,
2013-05-20 06:55:00,60.5,57.9,29.50,SSW,198,7.0,8.0,91,0.00,,,0.00,93,Wunderground v.1.15,2013-05-20 11:55:00,
2013-05-20 06:56:00,60.5,57.9,29.50,SSW,194,6.0,8.0,91,0.00,,,0.00,86,Wunderground v.1.15,2013-05-20 11:56:00,
2013-05-20 06:57:00,60.5,57.9,29.50,South,176,7.0,8.0,91,0.00,,,0.00,56,Wunderground v.1.15,2013-05-20 11:57:00,
2013-05-20 06:59:00,60.4,57.8,29.50,SSW,206,9.0,10.0,91,0.00,,,0.00,127,Wunderground v.1.15,2013-05-20 11:59:00,
2013-05-20 07:00:00,60.5,57.9,29.50,South,191,10.0,10.0,91,0.00,,,0.00,118,Wunderground v.1.15,2013-05-20 12:00:00,
2013-05-20 07:01:00,60.5,57.9,29.50,South,191,10.0,10.0,91,0.00,,,0.00,142,Wunderground v.1.15,2013-05-20 12:01:00,
2013-05-20 07:02:00,60.6,58.0,29.50,SSW,196,12.0,12.0,91,0.00,,,0.00,151,Wunderground v.1.15,2013-05-20 12:02:00,
2013-05-20 07:04:00,60.7,58.1,29.50,South,182,9.0,12.0,91,0.00,,,0.00,156,Wunderground v.1.15,2013-05-20 12:04:00,
2013-05-20 07:06:00,60.8,58.5,29.50,South,186,7.0,12.0,92,0.00,,,0.00,160,Wunderground v.1.15,2013-05-20 12:06:00,
2013-05-20 07:07:00,60.9,58.6,29.50,South,185,8.0,12.0,92,0.00,,,0.00,162,Wunderground v.1.15,2013-05-20 12:07:00,
2013-05-20 07:09:00,61.1,58.8,29.50,South,177,5.0,12.0,92,0.00,,,0.00,162,Wunderground v.1.15,2013-05-20 12:09:00,
2013-05-20 07:11:00,61.1,58.8,29.50,South,180,7.0,8.0,92,0.00,,,0.00,165,Wunderground v.1.15,2013-05-20 12:11:00,
2013-05-20 07:13:00,61.2,58.6,29.50,SSW,198,7.0,9.0,91,0.00,,,0.00,77,Wunderground v.1.15,2013-05-20 12:13:00,
2013-05-20 07:14:00,61.2,58.6,29.50,SSW,201,11.0,11.0,91,0.00,,,0.00,54,Wunderground v.1.15,2013-05-20 12:14:00,
2013-05-20 07:15:00,61.1,58.5,29.51,SSW,200,7.0,11.0,91,0.00,,,0.00,79,Wunderground v.1.15,2013-05-20 12:15:00,
2013-05-20 07:17:00,61.1,58.5,29.51,South,179,11.0,11.0,91,0.00,,,0.00,74,Wunderground v.1.15,2013-05-20 12:17:00,
2013-05-20 07:18:00,61.1,58.5,29.51,South,183,9.0,11.0,91,0.00,,,0.00,51,Wunderground v.1.15,2013-05-20 12:18:00,
2013-05-20 07:19:00,61.1,58.5,29.51,SSW,198,6.0,11.0,91,0.00,,,0.00,105,Wunderground v.1.15,2013-05-20 12:19:00,
2013-05-20 07:22:00,61.1,58.8,29.51,SSE,168,5.0,8.0,92,0.00,,,0.00,185,Wunderground v.1.15,2013-05-20 12:22:00,
2013-05-20 07:23:00,61.1,58.8,29.51,South,175,11.0,11.0,92,0.00,,,0.00,202,Wunderground v.1.15,2013-05-20 12:23:00,
2013-05-20 07:25:00,61.3,59.0,29.51,South,178,7.0,11.0,92,0.00,,,0.00,193,Wunderground v.1.15,2013-05-20 12:25:00,
2013-05-20 07:26:00,61.3,59.0,29.51,South,184,8.0,11.0,92,0.00,,,0.00,193,Wunderground v.1.15,2013-05-20 12:26:00,
2013-05-20 07:27:00,61.5,59.2,29.52,South,182,5.0,11.0,92,0.00,,,0.00,193,Wunderground v.1.15,2013-05-20 12:27:00,
2013-05-20 07:28:00,61.5,59.2,29.52,South,172,9.0,11.0,92,0.00,,,0.00,211,Wunderground v.1.15,2013-05-20 12:28:00,
2013-05-20 07:29:00,61.6,59.3,29.52,South,179,6.0,11.0,92,0.00,,,0.00,211,Wunderground v.1.15,2013-05-20 12:29:00,
2013-05-20 07:31:00,61.7,59.0,29.51,South,186,10.0,10.0,91,0.00,,,0.00,220,Wunderground v.1.15,2013-05-20 12:31:00,
2013-05-20 07:32:00,61.8,59.1,29.51,South,178,6.0,10.0,91,0.00,,,0.00,227,Wunderground v.1.15,2013-05-20 12:32:00,
2013-05-20 07:33:00,61.9,59.2,29.52,SSW,192,7.0,10.0,91,0.00,,,0.00,229,Wunderground v.1.15,2013-05-20 12:33:00,
2013-05-20 07:34:00,62.0,59.3,29.52,South,175,9.0,10.0,91,0.00,,,0.00,229,Wunderground v.1.15,2013-05-20 12:34:00,
2013-05-20 07:37:00,62.0,59.3,29.52,South,175,8.0,12.0,91,0.00,,,0.00,237,Wunderground v.1.15,2013-05-20 12:37:00,
2013-05-20 07:39:00,62.2,59.5,29.52,South,182,8.0,12.0,91,0.00,,,0.00,241,Wunderground v.1.15,2013-05-20 12:39:00,
2013-05-20 07:40:00,62.2,59.5,29.52,South,174,9.0,9.0,91,0.00,,,0.00,248,Wunderground v.1.15,2013-05-20 12:40:00,
2013-05-20 07:43:00,62.4,59.7,29.52,South,184,9.0,11.0,91,0.00,,,0.00,251,Wunderground v.1.15,2013-05-20 12:43:00,
2013-05-20 07:45:00,62.5,59.8,29.52,SSW,193,9.0,11.0,91,0.00,,,0.00,260,Wunderground v.1.15,2013-05-20 12:45:00,
2013-05-20 07:46:00,62.5,59.8,29.52,SSW,193,8.0,11.0,91,0.00,,,0.00,267,Wunderground v.1.15,2013-05-20 12:46:00,
2013-05-20 07:49:00,62.7,59.7,29.52,South,185,8.0,11.0,90,0.00,,,0.00,274,Wunderground v.1.15,2013-05-20 12:49:00,
2013-05-20 07:50:00,62.7,60.0,29.52,South,184,6.0,8.0,91,0.00,,,0.00,279,Wunderground v.1.15,2013-05-20 12:50:00,
2013-05-20 07:51:00,62.8,60.1,29.52,SSW,205,9.0,9.0,91,0.00,,,0.00,283,Wunderground v.1.15,2013-05-20 12:51:00,
2013-05-20 07:54:00,62.9,59.3,29.52,South,186,8.0,12.0,88,0.00,,,0.00,287,Wunderground v.1.15,2013-05-20 12:54:00,
2013-05-20 07:56:00,63.0,59.7,29.52,SSW,209,12.0,12.0,89,0.00,,,0.00,295,Wunderground v.1.15,2013-05-20 12:56:00,
2013-05-20 07:57:00,63.0,59.7,29.52,SSW,198,11.0,12.0,89,0.00,,,0.00,302,Wunderground v.1.15,2013-05-20 12:57:00,
2013-05-20 07:58:00,63.1,59.8,29.53,SSW,198,11.0,12.0,89,0.00,,,0.00,301,Wunderground v.1.15,2013-05-20 12:58:00,
2013-05-20 08:00:00,63.1,59.8,29.53,SSW,192,14.0,14.0,89,0.00,,,0.00,309,Wunderground v.1.15,2013-05-20 13:00:00,
2013-05-20 08:01:00,63.2,59.9,29.53,SSW,196,10.0,13.0,89,0.00,,,0.00,322,Wunderground v.1.15,2013-05-20 13:01:00,
2013-05-20 08:02:00,63.3,60.0,29.53,SSW,195,7.0,13.0,89,0.00,,,0.00,322,Wunderground v.1.15,2013-05-20 13:02:00,
2013-05-20 08:03:00,63.4,60.1,29.53,South,182,12.0,13.0,89,0.00,,,0.00,338,Wunderground v.1.15,2013-05-20 13:03:00,
2013-05-20 08:04:00,63.5,59.9,29.53,SSW,196,6.0,13.0,88,0.00,,,0.00,338,Wunderground v.1.15,2013-05-20 13:04:00,
2013-05-20 08:05:00,63.5,59.9,29.53,SSW,205,7.0,13.0,88,0.00,,,0.00,339,Wunderground v.1.15,2013-05-20 13:05:00,
2013-05-20 08:06:00,63.5,59.9,29.53,SSW,213,7.0,13.0,88,0.00,,,0.00,339,Wunderground v.1.15,2013-05-20 13:06:00,
2013-05-20 08:08:00,63.6,60.0,29.53,SSW,196,13.0,13.0,88,0.00,,,0.00,346,Wunderground v.1.15,2013-05-20 13:08:00,
2013-05-20 08:09:00,63.6,60.0,29.53,South,184,9.0,13.0,88,0.00,,,0.00,346,Wunderground v.1.15,2013-05-20 13:09:00,
2013-05-20 08:11:00,63.7,60.1,29.53,SSW,210,6.0,10.0,88,0.00,,,0.00,350,Wunderground v.1.15,2013-05-20 13:11:00,
2013-05-20 08:12:00,63.7,60.1,29.53,SSW,200,9.0,10.0,88,0.00,,,0.00,339,Wunderground v.1.15,2013-05-20 13:12:00,
2013-05-20 08:14:00,63.9,60.3,29.53,SSW,207,10.0,12.0,88,0.00,,,0.00,387,Wunderground v.1.15,2013-05-20 13:14:00,
2013-05-20 08:15:00,63.9,60.3,29.53,SW,217,7.0,12.0,88,0.00,,,0.00,385,Wunderground v.1.15,2013-05-20 13:15:00,
2013-05-20 08:17:00,63.9,59.6,29.53,SW,214,12.0,20.0,86,0.00,,,0.00,385,Wunderground v.1.15,2013-05-20 13:17:00,
2013-05-20 08:18:00,63.9,59.6,29.53,South,188,13.0,20.0,86,0.00,,,0.00,374,Wunderground v.1.15,2013-05-20 13:18:00,
2013-05-20 08:19:00,63.9,59.6,29.52,SSW,210,13.0,20.0,86,0.00,,,0.00,374,Wunderground v.1.15,2013-05-20 13:19:00,
2013-05-20 08:20:00,64.0,60.1,29.53,SW,223,11.0,11.0,87,0.00,,,0.00,387,Wunderground v.1.15,2013-05-20 13:20:00,
2013-05-20 08:21:00,64.0,59.7,29.53,SSW,202,16.0,16.0,86,0.00,,,0.00,404,Wunderground v.1.15,2013-05-20 13:21:00,
2013-05-20 08:24:00,63.8,59.5,29.53,SSW,193,11.0,16.0,86,0.00,,,0.00,413,Wunderground v.1.15,2013-05-20 13:24:00,
2013-05-20 08:25:00,63.9,59.6,29.53,SW,219,7.0,16.0,86,0.00,,,0.00,438,Wunderground v.1.15,2013-05-20 13:25:00,
2013-05-20 08:27:00,64.0,60.1,29.53,SW,226,11.0,16.0,87,0.00,,,0.00,438,Wunderground v.1.15,2013-05-20 13:27:00,
2013-05-20 08:28:00,64.0,59.7,29.53,SW,215,11.0,16.0,86,0.00,,,0.00,411,Wunderground v.1.15,2013-05-20 13:28:00,
2013-05-20 08:30:00,64.1,60.2,29.53,SW,214,8.0,12.0,87,0.00,,,0.00,422,Wunderground v.1.15,2013-05-20 13:30:00,
2013-05-20 08:32:00,64.2,60.2,29.53,SSW,200,13.0,15.0,87,0.00,,,0.00,420,Wunderground v.1.15,2013-05-20 13:32:00,
2013-05-20 08:33:00,64.2,59.9,29.53,SW,217,13.0,15.0,86,0.00,,,0.00,436,Wunderground v.1.15,2013-05-20 13:33:00,
2013-05-20 08:35:00,64.3,60.3,29.53,SSW,206,13.0,15.0,87,0.00,,,0.00,434,Wunderground v.1.15,2013-05-20 13:35:00,
2013-05-20 08:37:00,64.4,60.4,29.53,SW,215,10.0,15.0,87,0.00,,,0.00,462,Wunderground v.1.15,2013-05-20 13:37:00,
2013-05-20 08:38:00,64.4,60.4,29.53,SSW,212,9.0,15.0,87,0.00,,,0.00,450,Wunderground v.1.15,2013-05-20 13:38:00,
2013-05-20 08:39:00,64.5,60.5,29.53,SW,217,12.0,15.0,87,0.00,,,0.00,461,Wunderground v.1.15,2013-05-20 13:39:00,
2013-05-20 08:41:00,64.6,60.3,29.53,SW,218,12.0,14.0,86,0.00,,,0.00,492,Wunderground v.1.15,2013-05-20 13:41:00,
2013-05-20 08:43:00,64.6,60.3,29.53,SW,217,13.0,14.0,86,0.00,,,0.00,508,Wunderground v.1.15,2013-05-20 13:43:00,
2013-05-20 08:44:00,64.7,60.7,29.53,SW,218,12.0,14.0,87,0.00,,,0.00,541,Wunderground v.1.15,2013-05-20 13:44:00,
2013-05-20 08:48:00,64.7,60.4,29.53,SW,221,16.0,16.0,86,0.00,,,0.00,504,Wunderground v.1.15,2013-05-20 13:48:00,
2013-05-20 08:49:00,64.7,60.4,29.53,SW,227,12.0,17.0,86,0.00,,,0.00,526,Wunderground v.1.15,2013-05-20 13:49:00,
2013-05-20 08:51:00,64.7,60.1,29.53,SSW,210,15.0,15.0,85,0.00,,,0.00,318,Wunderground v.1.15,2013-05-20 13:51:00,
2013-05-20 08:53:00,64.6,60.0,29.53,SSW,213,13.0,18.0,85,0.00,,,0.00,218,Wunderground v.1.15,2013-05-20 13:53:00,
2013-05-20 08:55:00,64.5,59.6,29.53,SW,221,14.0,20.0,84,0.00,,,0.00,202,Wunderground v.1.15,2013-05-20 13:55:00,
2013-05-20 08:56:00,64.4,59.8,29.53,SW,215,20.0,20.0,85,0.00,,,0.00,547,Wunderground v.1.15,2013-05-20 13:56:00,
2013-05-20 08:59:00,64.5,59.9,29.53,SSW,205,15.0,20.0,85,0.00,,,0.00,564,Wunderground v.1.15,2013-05-20 13:59:00,
2013-05-20 09:01:00,64.7,60.4,29.53,SW,214,15.0,17.0,86,0.00,,,0.00,626,Wunderground v.1.15,2013-05-20 14:01:00,
2013-05-20 09:03:00,64.8,59.9,29.53,SSW,205,14.0,21.0,84,0.00,,,0.00,584,Wunderground v.1.15,2013-05-20 14:03:00,
2013-05-20 09:04:00,64.8,60.2,29.53,SSW,209,12.0,21.0,85,0.00,,,0.00,584,Wunderground v.1.15,2013-05-20 14:04:00,
2013-05-20 09:05:00,64.8,60.2,29.53,SW,217,13.0,21.0,85,0.00,,,0.00,601,Wunderground v.1.15,2013-05-20 14:05:00,
2013-05-20 09:08:00,64.9,59.9,29.53,SSW,208,16.0,21.0,84,0.00,,,0.00,601,Wunderground v.1.15,2013-05-20 14:08:00,
2013-05-20 09:11:00,65.0,60.7,29.53,SW,232,9.0,15.0,86,0.00,,,0.00,497,Wunderground v.1.15,2013-05-20 14:11:00,
2013-05-20 09:12:00,64.9,60.3,29.53,SW,219,14.0,18.0,85,0.00,,,0.00,497,Wunderground v.1.15,2013-05-20 14:12:00,
2013-05-20 09:13:00,64.9,60.3,29.53,SW,234,9.0,18.0,85,0.00,,,0.00,497,Wunderground v.1.15,2013-05-20 14:13:00,
2013-05-20 09:16:00,65.1,60.8,29.53,SW,224,18.0,18.0,86,0.00,,,0.00,643,Wunderground v.1.15,2013-05-20 14:16:00,
2013-05-20 09:17:00,65.1,60.5,29.53,SW,221,13.0,18.0,85,0.00,,,0.00,218,Wunderground v.1.15,2013-05-20 14:17:00,
2013-05-20 09:18:00,65.2,60.6,29.53,WSW,237,16.0,18.0,85,0.00,,,0.00,218,Wunderground v.1.15,2013-05-20 14:18:00,
2013-05-20 09:20:00,65.3,60.7,29.53,SW,234,12.0,15.0,85,0.00,,,0.00,647,Wunderground v.1.15,2013-05-20 14:20:00,
2013-05-20 09:21:00,65.4,60.8,29.53,SSW,205,9.0,15.0,85,0.00,,,0.00,647,Wunderground v.1.15,2013-05-20 14:21:00,
2013-05-20 09:23:00,65.5,60.9,29.53,SSW,211,10.0,15.0,85,0.00,,,0.00,784,Wunderground v.1.15,2013-05-20 14:23:00,
2013-05-20 09:24:00,65.5,60.9,29.53,WSW,238,17.0,17.0,85,0.00,,,0.00,784,Wunderground v.1.15,2013-05-20 14:24:00,
2013-05-20 09:27:00,65.7,61.4,29.53,SW,218,17.0,20.0,86,0.00,,,0.00,768,Wunderground v.1.15,2013-05-20 14:27:00,
2013-05-20 09:29:00,65.8,60.8,29.53,SW,227,18.0,20.0,84,0.00,,,0.00,768,Wunderground v.1.15,2013-05-20 14:29:00,
2013-05-20 09:31:00,65.7,60.7,29.53,SW,217,11.0,15.0,84,0.00,,,0.00,684,Wunderground v.1.15,2013-05-20 14:31:00,
2013-05-20 09:32:00,65.8,61.5,29.53,SW,221,10.0,15.0,86,0.00,,,0.00,684,Wunderground v.1.15,2013-05-20 14:32:00,
2013-05-20 09:33:00,65.8,60.8,29.53,SSW,208,13.0,17.0,84,0.00,,,0.00,684,Wunderground v.1.15,2013-05-20 14:33:00,
2013-05-20 09:36:00,65.9,61.6,29.53,SW,236,12.0,18.0,86,0.00,,,0.00,763,Wunderground v.1.15,2013-05-20 14:36:00,
2013-05-20 09:37:00,65.9,60.9,29.53,WSW,238,16.0,18.0,84,0.00,,,0.00,763,Wunderground v.1.15,2013-05-20 14:37:00,
2013-05-20 09:38:00,65.9,61.3,29.53,SW,225,15.0,21.0,85,0.00,,,0.00,763,Wunderground v.1.15,2013-05-20 14:38:00,
2013-05-20 09:39:00,65.9,60.9,29.53,SW,221,20.0,21.0,84,0.00,,,0.00,763,Wunderground v.1.15,2013-05-20 14:39:00,
2013-05-20 09:42:00,65.6,60.6,29.53,SW,226,12.0,19.0,84,0.00,,,0.00,763,Wunderground v.1.15,2013-05-20 14:42:00,
2013-05-20 09:43:00,65.6,61.0,29.53,SW,232,16.0,19.0,85,0.00,,,0.00,269,Wunderground v.1.15,2013-05-20 14:43:00,
2013-05-20 09:44:00,65.6,61.0,29.53,SW,220,15.0,19.0,85,0.00,,,0.00,269,Wunderground v.1.15,2013-05-20 14:44:00,
2013-05-20 09:45:00,65.7,61.4,29.53,SW,217,15.0,19.0,86,0.00,,,0.00,269,Wunderground v.1.15,2013-05-20 14:45:00,
2013-05-20 09:47:00,65.9,61.6,29.53,SW,220,14.0,19.0,86,0.00,,,0.00,413,Wunderground v.1.15,2013-05-20 14:47:00,
2013-05-20 09:48:00,65.8,60.8,29.53,SW,216,21.0,21.0,84,0.00,,,0.00,413,Wunderground v.1.15,2013-05-20 14:48:00,
2013-05-20 09:49:00,65.8,60.5,29.53,SW,221,12.0,21.0,83,0.00,,,0.00,413,Wunderground v.1.15,2013-05-20 14:49:00,
2013-05-20 09:50:00,65.7,60.7,29.53,SSW,211,15.0,15.0,84,0.00,,,0.00,413,Wunderground v.1.15,2013-05-20 14:50:00,
2013-05-20 09:53:00,65.7,61.4,29.53,SSW,213,12.0,19.0,86,0.00,,,0.00,649,Wunderground v.1.15,2013-05-20 14:53:00,
2013-05-20 09:55:00,65.9,61.6,29.53,SSW,209,12.0,19.0,86,0.00,,,0.00,649,Wunderground v.1.15,2013-05-20 14:55:00,
2013-05-20 09:56:00,66.0,61.7,29.53,SW,217,9.0,19.0,86,0.00,,,0.00,649,Wunderground v.1.15,2013-05-20 14:56:00,
2013-05-20 09:57:00,65.9,61.6,29.53,SSW,208,17.0,19.0,86,0.00,,,0.00,171,Wunderground v.1.15,2013-05-20 14:57:00,
2013-05-20 09:58:00,65.8,61.2,29.53,SW,233,10.0,19.0,85,0.00,,,0.00,638,Wunderground v.1.15,2013-05-20 14:58:00,
2013-05-20 10:00:00,65.7,60.7,29.53,SW,221,13.0,19.0,84,0.00,,,0.00,679,Wunderground v.1.15,2013-05-20 15:00:00,
2013-05-20 10:01:00,65.8,61.5,29.54,SW,223,14.0,17.0,86,0.00,,,0.00,679,Wunderground v.1.15,2013-05-20 15:01:00,
2013-05-20 10:02:00,65.8,61.5,29.54,SSW,209,12.0,17.0,86,0.00,,,0.00,679,Wunderground v.1.15,2013-05-20 15:02:00,
2013-05-20 10:03:00,66.0,62.0,29.54,SSW,207,17.0,17.0,87,0.00,,,0.00,831,Wunderground v.1.15,2013-05-20 15:03:00,
2013-05-20 10:04:00,66.1,61.8,29.54,SW,224,12.0,17.0,86,0.00,,,0.00,831,Wunderground v.1.15,2013-05-20 15:04:00,
2013-05-20 10:06:00,66.4,61.8,29.54,SW,219,18.0,19.0,85,0.00,,,0.00,904,Wunderground v.1.15,2013-05-20 15:06:00,
2013-05-20 10:07:00,66.5,61.8,29.54,SSW,192,9.0,19.0,85,0.00,,,0.00,904,Wunderground v.1.15,2013-05-20 15:07:00,
2013-05-20 10:09:00,66.7,61.7,29.54,SSW,210,17.0,23.0,84,0.00,,,0.00,858,Wunderground v.1.15,2013-05-20 15:09:00,
2013-05-20 10:11:00,66.9,61.9,29.54,SW,229,13.0,21.0,84,0.00,,,0.00,504,Wunderground v.1.15,2013-05-20 15:11:00,
2013-05-20 10:12:00,67.0,62.7,29.54,SW,214,16.0,21.0,86,0.00,,,0.00,504,Wunderground v.1.15,2013-05-20 15:12:00,
2013-05-20 10:15:00,67.0,61.7,29.54,SW,214,15.0,21.0,83,0.00,,,0.00,976,Wunderground v.1.15,2013-05-20 15:15:00,
2013-05-20 10:17:00,66.8,61.5,29.54,SW,227,16.0,21.0,83,0.00,,,0.00,357,Wunderground v.1.15,2013-05-20 15:17:00,
2013-05-20 10:19:00,66.5,61.2,29.54,SW,219,18.0,21.0,83,0.00,,,0.00,302,Wunderground v.1.15,2013-05-20 15:19:00,
2013-05-20 10:20:00,66.3,61.3,29.54,SW,223,15.0,16.0,84,0.00,,,0.00,302,Wunderground v.1.15,2013-05-20 15:20:00,
2013-05-20 10:21:00,66.3,61.0,29.54,SSW,208,14.0,21.0,83,0.00,,,0.00,302,Wunderground v.1.15,2013-05-20 15:21:00,
2013-05-20 10:22:00,66.3,61.3,29.54,SW,225,22.0,22.0,84,0.00,,,0.00,302,Wunderground v.1.15,2013-05-20 15:22:00,
2013-05-20 10:23:00,66.3,61.7,29.54,SSW,211,17.0,22.0,85,0.00,,,0.00,302,Wunderground v.1.15,2013-05-20 15:23:00,
2013-05-20 10:25:00,66.6,61.6,29.54,SSW,204,17.0,22.0,84,0.00,,,0.00,367,Wunderground v.1.15,2013-05-20 15:25:00,
2013-05-20 10:27:00,66.6,61.6,29.54,SW,225,16.0,22.0,84,0.00,,,0.00,288,Wunderground v.1.15,2013-05-20 15:27:00,
2013-05-20 10:28:00,66.6,61.9,29.55,SW,229,20.0,22.0,85,0.00,,,0.00,301,Wunderground v.1.15,2013-05-20 15:28:00,
2013-05-20 10:31:00,66.5,61.2,29.55,SW,233,15.0,16.0,83,0.00,,,0.00,359,Wunderground v.1.15,2013-05-20 15:31:00,
2013-05-20 10:33:00,66.5,61.5,29.55,WSW,248,16.0,20.0,84,0.00,,,0.00,359,Wunderground v.1.15,2013-05-20 15:33:00,
2013-05-20 10:36:00,66.5,61.5,29.55,SW,225,11.0,20.0,84,0.00,,,0.00,299,Wunderground v.1.15,2013-05-20 15:36:00,
2013-05-20 10:38:00,66.5,61.5,29.55,SW,234,20.0,20.0,84,0.00,,,0.00,318,Wunderground v.1.15,2013-05-20 15:38:00,
2013-05-20 10:39:00,66.5,61.5,29.55,SW,232,13.0,20.0,84,0.00,,,0.00,359,Wunderground v.1.15,2013-05-20 15:39:00,
2013-05-20 10:41:00,66.5,61.5,29.55,SW,229,18.0,18.0,84,0.00,,,0.00,274,Wunderground v.1.15,2013-05-20 15:41:00,
2013-05-20 10:43:00,66.3,61.3,29.55,SW,214,14.0,19.0,84,0.00,,,0.00,313,Wunderground v.1.15,2013-05-20 15:43:00,
2013-05-20 10:44:00,66.3,61.3,29.55,SW,234,13.0,19.0,84,0.00,,,0.00,313,Wunderground v.1.15,2013-05-20 15:44:00,
2013-05-20 10:45:00,66.3,62.0,29.55,SW,229,12.0,19.0,86,0.00,,,0.00,313,Wunderground v.1.15,2013-05-20 15:45:00,
2013-05-20 10:47:00,66.4,61.8,29.55,WSW,238,15.0,19.0,85,0.00,,,0.00,313,Wunderground v.1.15,2013-05-20 15:47:00,
2013-05-20 10:49:00,66.5,61.8,29.56,WSW,240,14.0,19.0,85,0.00,,,0.00,313,Wunderground v.1.15,2013-05-20 15:49:00,
2013-05-20 10:50:00,66.6,61.6,29.56,SW,235,13.0,19.0,84,0.00,,,0.00,313,Wunderground v.1.15,2013-05-20 15:50:00,
2013-05-20 10:52:00,66.9,62.2,29.56,SW,235,16.0,20.0,85,0.00,,,0.00,673,Wunderground v.1.15,2013-05-20 15:52:00,
2013-05-20 10:53:00,67.0,62.7,29.56,SW,233,13.0,20.0,86,0.00,,,0.00,673,Wunderground v.1.15,2013-05-20 15:53:00,
2013-05-20 10:54:00,67.2,62.5,29.56,WSW,237,14.0,20.0,85,0.00,,,0.00,673,Wunderground v.1.15,2013-05-20 15:54:00,
2013-05-20 10:55:00,67.2,62.5,29.56,SW,236,15.0,20.0,85,0.00,,,0.00,673,Wunderground v.1.15,2013-05-20 15:55:00,
2013-05-20 10:56:00,67.2,62.2,29.56,SW,231,19.0,20.0,84,0.00,,,0.00,673,Wunderground v.1.15,2013-05-20 15:56:00,
2013-05-20 10:58:00,67.0,61.7,29.56,SW,234,17.0,20.0,83,0.00,,,0.00,673,Wunderground v.1.15,2013-05-20 15:58:00,
2013-05-20 11:01:00,66.7,61.4,29.56,SW,230,12.0,22.0,83,0.00,,,0.00,673,Wunderground v.1.15,2013-05-20 16:01:00,
2013-05-20 11:03:00,66.8,62.5,29.56,WSW,242,14.0,22.0,86,0.00,,,0.00,673,Wunderground v.1.15,2013-05-20 16:03:00,
2013-05-20 11:06:00,66.9,62.9,29.56,WSW,238,18.0,22.0,87,0.00,,,0.00,673,Wunderground v.1.15,2013-05-20 16:06:00,
2013-05-20 11:07:00,67.0,62.3,29.56,SW,227,19.0,22.0,85,0.00,,,0.00,1030,Wunderground v.1.15,2013-05-20 16:07:00,
2013-05-20 11:08:00,67.0,62.3,29.56,WSW,244,16.0,22.0,85,0.00,,,0.00,1030,Wunderground v.1.15,2013-05-20 16:08:00,
2013-05-20 11:12:00,66.7,61.4,29.56,SW,232,20.0,20.0,83,0.00,,,0.00,415,Wunderground v.1.15,2013-05-20 16:12:00,
2013-05-20 11:13:00,66.4,60.7,29.56,SW,230,18.0,21.0,82,0.00,,,0.00,490,Wunderground v.1.15,2013-05-20 16:13:00,
2013-05-20 11:15:00,66.3,61.3,29.56,SW,231,20.0,21.0,84,0.00,,,0.00,490,Wunderground v.1.15,2013-05-20 16:15:00,
2013-05-20 11:17:00,66.1,60.8,29.56,SW,228,15.0,21.0,83,0.00,,,0.00,339,Wunderground v.1.15,2013-05-20 16:17:00,
2013-05-20 11:19:00,66.1,61.1,29.56,SW,230,19.0,23.0,84,0.00,,,0.00,290,Wunderground v.1.15,2013-05-20 16:19:00,
2013-05-20 11:20:00,66.3,61.7,29.56,SW,217,17.0,18.0,85,0.00,,,0.00,933,Wunderground v.1.15,2013-05-20 16:20:00,
2013-05-20 11:22:00,66.4,61.8,29.57,SW,228,21.0,21.0,85,0.00,,,0.00,933,Wunderground v.1.15,2013-05-20 16:22:00,
2013-05-20 11:26:00,67.0,62.3,29.57,SW,225,9.0,21.0,85,0.00,,,0.00,1030,Wunderground v.1.15,2013-05-20 16:26:00,
2013-05-20 11:27:00,67.3,62.3,29.57,SW,227,11.0,21.0,84,0.00,,,0.00,1030,Wunderground v.1.15,2013-05-20 16:27:00,
2013-05-20 11:31:00,67.1,61.4,29.57,SW,231,16.0,22.0,82,0.00,,,0.00,1030,Wunderground v.1.15,2013-05-20 16:31:00,
2013-05-20 11:32:00,67.0,61.7,29.57,WSW,243,18.0,22.0,83,0.00,,,0.00,1030,Wunderground v.1.15,2013-05-20 16:32:00,
2013-05-20 11:33:00,67.1,62.4,29.57,SW,228,20.0,22.0,85,0.00,,,0.00,958,Wunderground v.1.15,2013-05-20 16:33:00,
2013-05-20 11:34:00,67.1,62.4,29.57,SW,217,17.0,22.0,85,0.00,,,0.00,984,Wunderground v.1.15,2013-05-20 16:34:00,
2013-05-20 11:36:00,67.6,63.3,29.57,SW,214,19.0,22.0,86,0.00,,,0.00,1035,Wunderground v.1.15,2013-05-20 16:36:00,
2013-05-20 11:38:00,67.5,62.2,29.57,SW,225,15.0,22.0,83,0.00,,,0.00,1035,Wunderground v.1.15,2013-05-20 16:38:00,
2013-05-20 11:39:00,67.4,62.1,29.57,WSW,241,12.0,22.0,83,0.00,,,0.00,308,Wunderground v.1.15,2013-05-20 16:39:00,
2013-05-20 11:41:00,67.2,62.2,29.57,SSW,203,17.0,18.0,84,0.00,,,0.00,406,Wunderground v.1.15,2013-05-20 16:41:00,
2013-05-20 11:43:00,67.3,62.3,29.57,SW,217,11.0,18.0,84,0.00,,,0.00,970,Wunderground v.1.15,2013-05-20 16:43:00,
2013-05-20 11:45:00,67.7,62.7,29.57,SW,225,13.0,18.0,84,0.00,,,0.00,1025,Wunderground v.1.15,2013-05-20 16:45:00,
2013-05-20 11:46:00,67.7,62.7,29.57,SSW,209,12.0,18.0,84,0.00,,,0.00,1048,Wunderground v.1.15,2013-05-20 16:46:00,
2013-05-20 11:47:00,67.7,62.3,29.57,SSW,213,10.0,18.0,83,0.00,,,0.00,1048,Wunderground v.1.15,2013-05-20 16:47:00,
2013-05-20 11:50:00,68.4,63.4,29.57,SSW,208,17.0,17.0,84,0.00,,,0.00,1072,Wunderground v.1.15,2013-05-20 16:50:00,
2013-05-20 11:52:00,68.4,62.7,29.57,SSW,198,11.0,21.0,82,0.00,,,0.00,1005,Wunderground v.1.15,2013-05-20 16:52:00,
2013-05-20 11:57:00,68.5,63.1,29.57,SSW,202,11.0,21.0,83,0.00,,,0.00,933,Wunderground v.1.15,2013-05-20 16:57:00,
2013-05-20 11:58:00,68.5,62.8,29.57,SSW,205,9.0,21.0,82,0.00,,,0.00,933,Wunderground v.1.15,2013-05-20 16:58:00,
2013-05-20 11:59:00,68.5,63.1,29.57,SSW,210,12.0,21.0,83,0.00,,,0.00,1004,Wunderground v.1.15,2013-05-20 16:59:00,
2013-05-20 12:02:00,69.0,64.0,29.57,SW,229,17.0,17.0,84,0.00,,,0.00,981,Wunderground v.1.15,2013-05-20 17:02:00,
2013-05-20 12:03:00,69.2,64.2,29.57,SSW,211,17.0,19.0,84,0.00,,,0.00,963,Wunderground v.1.15,2013-05-20 17:03:00,
2013-05-20 12:05:00,69.4,63.7,29.58,SW,217,19.0,19.0,82,0.00,,,0.00,976,Wunderground v.1.15,2013-05-20 17:05:00,
2013-05-20 12:08:00,69.5,63.8,29.58,SW,232,13.0,19.0,82,0.00,,,0.00,976,Wunderground v.1.15,2013-05-20 17:08:00,
2013-05-20 12:09:00,69.4,63.3,29.58,SSW,200,14.0,19.0,81,0.00,,,0.00,976,Wunderground v.1.15,2013-05-20 17:09:00,
2013-05-20 12:13:00,69.5,63.4,29.58,SW,231,15.0,15.0,81,0.00,,,0.00,1085,Wunderground v.1.15,2013-05-20 17:13:00,
2013-05-20 12:14:00,69.6,63.9,29.58,SSW,207,13.0,16.0,82,0.00,,,0.00,1085,Wunderground v.1.15,2013-05-20 17:14:00,
2013-05-20 12:17:00,69.9,63.8,29.58,SSW,213,14.0,16.0,81,0.00,,,0.00,1000,Wunderground v.1.15,2013-05-20 17:17:00,
2013-05-20 12:18:00,69.9,63.4,29.58,SSW,202,12.0,16.0,80,0.00,,,0.00,1000,Wunderground v.1.15,2013-05-20 17:18:00,
2013-05-20 12:19:00,69.9,63.4,29.58,SSW,200,15.0,18.0,80,0.00,,,0.00,1000,Wunderground v.1.15,2013-05-20 17:19:00,
2013-05-20 12:22:00,69.9,63.8,29.58,SW,228,14.0,17.0,81,0.00,,,0.00,1000,Wunderground v.1.15,2013-05-20 17:22:00,
2013-05-20 12:24:00,70.0,63.5,29.58,SSW,208,10.0,17.0,80,0.00,,,0.00,1071,Wunderground v.1.15,2013-05-20 17:24:00,
2013-05-20 12:25:00,69.9,63.8,29.58,SSW,213,11.0,17.0,81,0.00,,,0.00,1071,Wunderground v.1.15,2013-05-20 17:25:00,
2013-05-20 12:28:00,70.2,64.1,29.58,SW,234,13.0,17.0,81,0.00,,,0.00,1076,Wunderground v.1.15,2013-05-20 17:28:00,
2013-05-20 12:29:00,70.4,63.6,29.58,SW,225,20.0,20.0,79,0.00,,,0.00,1074,Wunderground v.1.15,2013-05-20 17:29:00,
2013-05-20 12:30:00,70.5,64.0,29.58,SSW,211,10.0,14.0,80,0.00,,,0.00,1053,Wunderground v.1.15,2013-05-20 17:30:00,
2013-05-20 12:32:00,70.7,63.9,29.58,SSW,202,9.0,16.0,79,0.00,,,0.00,1071,Wunderground v.1.15,2013-05-20 17:32:00,
2013-05-20 12:34:00,70.7,64.2,29.58,SW,225,9.0,16.0,80,0.00,,,0.00,1071,Wunderground v.1.15,2013-05-20 17:34:00,
2013-05-20 12:35:00,70.8,65.4,29.58,SW,215,13.0,16.0,83,0.00,,,0.00,1072,Wunderground v.1.15,2013-05-20 17:35:00,
2013-05-20 12:36:00,70.8,65.4,29.57,SW,219,12.0,16.0,83,0.00,,,0.00,1072,Wunderground v.1.15,2013-05-20 17:36:00,
2013-05-20 12:38:00,70.7,64.2,29.57,SW,216,17.0,17.0,80,0.00,,,0.00,1067,Wunderground v.1.15,2013-05-20 17:38:00,
2013-05-20 12:39:00,70.8,64.7,29.58,SSW,205,16.0,17.0,81,0.00,,,0.00,1076,Wunderground v.1.15,2013-05-20 17:39:00,
2013-05-20 12:40:00,70.7,63.5,29.58,SW,220,14.0,15.0,78,0.00,,,0.00,1076,Wunderground v.1.15,2013-05-20 17:40:00,
2013-05-20 12:41:00,70.8,64.0,29.58,SW,225,9.0,15.0,79,0.00,,,0.00,1086,Wunderground v.1.15,2013-05-20 17:41:00,
2013-05-20 12:42:00,70.9,64.4,29.58,SW,226,8.0,15.0,80,0.00,,,0.00,1086,Wunderground v.1.15,2013-05-20 17:42:00,
2013-05-20 12:43:00,71.1,65.0,29.58,SW,227,15.0,17.0,81,0.00,,,0.00,1104,Wunderground v.1.15,2013-05-20 17:43:00,
2013-05-20 12:45:00,71.3,64.4,29.58,SW,217,15.0,17.0,79,0.00,,,0.00,1143,Wunderground v.1.15,2013-05-20 17:45:00,
2013-05-20 12:46:00,71.3,63.3,29.58,SW,228,9.0,17.0,76,0.00,,,0.00,1118,Wunderground v.1.15,2013-05-20 17:46:00,
2013-05-20 12:47:00,71.3,63.3,29.58,SW,232,14.0,17.0,76,0.00,,,0.00,1118,Wunderground v.1.15,2013-05-20 17:47:00,
2013-05-20 12:49:00,71.6,65.1,29.58,SW,235,13.0,17.0,80,0.00,,,0.00,1090,Wunderground v.1.15,2013-05-20 17:49:00,
2013-05-20 12:50:00,71.5,63.5,29.58,SSW,199,11.0,13.0,76,0.00,,,0.00,1048,Wunderground v.1.15,2013-05-20 17:50:00,
2013-05-20 12:52:00,71.6,64.4,29.58,SSW,203,13.0,17.0,78,0.00,,,0.00,1048,Wunderground v.1.15,2013-05-20 17:52:00,
2013-05-20 12:54:00,71.4,63.8,29.58,SW,217,9.0,17.0,77,0.00,,,0.00,1048,Wunderground v.1.15,2013-05-20 17:54:00,
2013-05-20 12:55:00,71.5,63.9,29.58,SSW,208,17.0,17.0,77,0.00,,,0.00,1139,Wunderground v.1.15,2013-05-20 17:55:00,
2013-05-20 12:56:00,71.6,64.0,29.58,SW,217,14.0,17.0,77,0.00,,,0.00,1223,Wunderground v.1.15,2013-05-20 17:56:00,
2013-05-20 12:58:00,71.7,64.1,29.58,SW,220,19.0,19.0,77,0.00,,,0.00,1223,Wunderground v.1.15,2013-05-20 17:58:00,
2013-05-20 12:59:00,71.6,63.6,29.58,SW,214,18.0,19.0,76,0.00,,,0.00,1090,Wunderground v.1.15,2013-05-20 17:59:00,
2013-05-20 13:00:00,71.6,64.0,29.58,SW,218,12.0,14.0,77,0.00,,,0.00,1090,Wunderground v.1.15,2013-05-20 18:00:00,
2013-05-20 13:01:00,71.7,64.5,29.58,SSW,211,15.0,15.0,78,0.00,,,0.00,1081,Wunderground v.1.15,2013-05-20 18:01:00,
2013-05-20 13:03:00,71.8,64.9,29.58,SSW,195,8.0,16.0,79,0.00,,,0.00,1192,Wunderground v.1.15,2013-05-20 18:03:00,
2013-05-20 13:04:00,72.0,64.4,29.58,SSW,196,13.0,17.0,77,0.00,,,0.00,1192,Wunderground v.1.15,2013-05-20 18:04:00,
2013-05-20 13:06:00,72.2,65.0,29.58,SW,221,16.0,20.0,78,0.00,,,0.00,1213,Wunderground v.1.15,2013-05-20 18:06:00,
2013-05-20 13:07:00,72.2,64.6,29.58,SSW,206,13.0,20.0,77,0.00,,,0.00,1213,Wunderground v.1.15,2013-05-20 18:07:00,
2013-05-20 13:10:00,72.1,63.0,29.58,SSW,194,10.0,20.0,73,0.00,,,0.00,1062,Wunderground v.1.15,2013-05-20 18:10:00,
2013-05-20 13:11:00,72.2,63.8,29.58,SW,219,14.0,15.0,75,0.00,,,0.00,1023,Wunderground v.1.15,2013-05-20 18:11:00,
2013-05-20 13:12:00,72.2,64.2,29.58,WSW,238,13.0,18.0,76,0.00,,,0.00,1051,Wunderground v.1.15,2013-05-20 18:12:00,
2013-05-20 13:15:00,72.3,64.7,29.58,SW,232,7.0,18.0,77,0.00,,,0.00,1051,Wunderground v.1.15,2013-05-20 18:15:00,
2013-05-20 13:16:00,72.5,65.2,29.58,SW,229,12.0,18.0,78,0.00,,,0.00,1051,Wunderground v.1.15,2013-05-20 18:16:00,
2013-05-20 13:18:00,72.3,63.2,29.58,SW,215,20.0,20.0,73,0.00,,,0.00,1148,Wunderground v.1.15,2013-05-20 18:18:00,
2013-05-20 13:19:00,72.4,64.0,29.58,SW,225,16.0,20.0,75,0.00,,,0.00,1116,Wunderground v.1.15,2013-05-20 18:19:00,
2013-05-20 13:21:00,72.7,64.7,29.58,SW,214,10.0,16.0,76,0.00,,,0.00,1074,Wunderground v.1.15,2013-05-20 18:21:00,
2013-05-20 13:22:00,72.7,65.1,29.58,SSW,211,16.0,16.0,77,0.00,,,0.00,1074,Wunderground v.1.15,2013-05-20 18:22:00,
2013-05-20 13:24:00,72.2,62.7,29.58,SSW,205,14.0,16.0,72,0.00,,,0.00,1074,Wunderground v.1.15,2013-05-20 18:24:00,
2013-05-20 13:25:00,72.0,62.9,29.58,SW,219,17.0,17.0,73,0.00,,,0.00,1074,Wunderground v.1.15,2013-05-20 18:25:00,
2013-05-20 13:27:00,72.0,63.6,29.58,SW,220,15.0,17.0,75,0.00,,,0.00,1074,Wunderground v.1.15,2013-05-20 18:27:00,
2013-05-20 13:29:00,72.0,63.3,29.58,SW,225,9.0,17.0,74,0.00,,,0.00,1074,Wunderground v.1.15,2013-05-20 18:29:00,
2013-05-20 13:31:00,72.1,63.0,29.58,SW,226,15.0,19.0,73,0.00,,,0.00,1074,Wunderground v.1.15,2013-05-20 18:31:00,
2013-05-20 13:32:00,72.0,63.6,29.58,SSW,210,10.0,19.0,75,0.00,,,0.00,1074,Wunderground v.1.15,2013-05-20 18:32:00,
2013-05-20 13:33:00,72.0,63.6,29.58,SSW,192,13.0,19.0,75,0.00,,,0.00,1074,Wunderground v.1.15,2013-05-20 18:33:00,
2013-05-20 13:34:00,72.0,63.3,29.58,SW,222,10.0,19.0,74,0.00,,,0.00,1074,Wunderground v.1.15,2013-05-20 18:34:00,
2013-05-20 13:37:00,72.5,64.5,29.58,SW,234,15.0,19.0,76,0.00,,,0.00,1093,Wunderground v.1.15,2013-05-20 18:37:00,
2013-05-20 13:38:00,72.7,64.3,29.58,SW,225,11.0,19.0,75,0.00,,,0.00,1086,Wunderground v.1.15,2013-05-20 18:38:00,
2013-05-20 13:40:00,72.8,64.0,29.58,SW,217,12.0,13.0,74,0.00,,,0.00,1158,Wunderground v.1.15,2013-05-20 18:40:00,
2013-05-20 13:43:00,72.9,64.1,29.58,SW,215,15.0,16.0,74,0.00,,,0.00,1158,Wunderground v.1.15,2013-05-20 18:43:00,
2013-05-20 13:45:00,72.9,62.9,29.58,SW,227,11.0,16.0,71,0.00,,,0.00,1158,Wunderground v.1.15,2013-05-20 18:45:00,
2013-05-20 13:46:00,72.8,63.2,29.58,SW,235,12.0,16.0,72,0.00,,,0.00,316,Wunderground v.1.15,2013-05-20 18:46:00,
2013-05-20 13:50:00,72.9,63.3,29.58,SSW,211,11.0,13.0,72,0.00,,,0.00,1158,Wunderground v.1.15,2013-05-20 18:50:00,
2013-05-20 13:51:00,73.0,64.6,29.58,SW,216,12.0,16.0,75,0.00,,,0.00,1158,Wunderground v.1.15,2013-05-20 18:51:00,
2013-05-20 13:52:00,73.0,64.6,29.58,SSW,204,10.0,16.0,75,0.00,,,0.00,253,Wunderground v.1.15,2013-05-20 18:52:00,
2013-05-20 13:56:00,72.8,64.4,29.58,SSW,205,9.0,17.0,75,0.00,,,0.00,1171,Wunderground v.1.15,2013-05-20 18:56:00,
2013-05-20 13:57:00,72.8,63.6,29.58,SSW,204,13.0,17.0,73,0.00,,,0.00,299,Wunderground v.1.15,2013-05-20 18:57:00,
2013-05-20 13:58:00,72.6,63.4,29.58,SW,223,10.0,17.0,73,0.00,,,0.00,299,Wunderground v.1.15,2013-05-20 18:58:00,
2013-05-20 14:01:00,72.1,63.0,29.58,SW,215,7.0,12.0,73,0.00,,,0.00,313,Wunderground v.1.15,2013-05-20 19:01:00,
2013-05-20 14:02:00,72.0,62.5,29.58,WSW,248,9.0,16.0,72,0.00,,,0.00,355,Wunderground v.1.15,2013-05-20 19:02:00,
2013-05-20 14:03:00,71.9,62.4,29.58,SW,233,10.0,16.0,72,0.00,,,0.00,454,Wunderground v.1.15,2013-05-20 19:03:00,
2013-05-20 14:07:00,72.4,63.6,29.57,SW,224,13.0,16.0,74,0.00,,,0.00,464,Wunderground v.1.15,2013-05-20 19:07:00,
2013-05-20 14:08:00,72.4,62.9,29.58,SW,231,10.0,16.0,72,0.00,,,0.00,552,Wunderground v.1.15,2013-05-20 19:08:00,
2013-05-20 14:10:00,72.7,63.5,29.58,South,188,9.0,16.0,73,0.00,,,0.00,526,Wunderground v.1.15,2013-05-20 19:10:00,
2013-05-20 14:13:00,73.1,63.5,29.58,South,178,10.0,18.0,72,0.00,,,0.00,237,Wunderground v.1.15,2013-05-20 19:13:00,
2013-05-20 14:15:00,72.8,63.6,29.58,SW,225,9.0,18.0,73,0.00,,,0.00,325,Wunderground v.1.15,2013-05-20 19:15:00,
2013-05-20 14:16:00,73.0,64.2,29.57,SW,214,9.0,18.0,74,0.00,,,0.00,325,Wunderground v.1.15,2013-05-20 19:16:00,
2013-05-20 14:19:00,73.8,63.4,29.58,SSW,205,13.0,18.0,70,0.00,,,0.00,1160,Wunderground v.1.15,2013-05-20 19:19:00,
2013-05-20 14:21:00,74.0,64.0,29.58,SSW,206,14.0,15.0,71,0.00,,,0.00,1160,Wunderground v.1.15,2013-05-20 19:21:00,
2013-05-20 14:23:00,73.9,62.7,29.58,SW,227,16.0,17.0,68,0.00,,,0.00,1160,Wunderground v.1.15,2013-05-20 19:23:00,
2013-05-20 14:25:00,73.6,63.6,29.58,SSW,204,13.0,17.0,71,0.00,,,0.00,1160,Wunderground v.1.15,2013-05-20 19:25:00,
2013-05-20 14:27:00,73.6,62.8,29.57,SSW,196,14.0,18.0,69,0.00,,,0.00,1160,Wunderground v.1.15,2013-05-20 19:27:00,
2013-05-20 14:28:00,73.6,64.0,29.57,SSW,212,15.0,18.0,72,0.00,,,0.00,1160,Wunderground v.1.15,2013-05-20 19:28:00,
2013-05-20 14:29:00,73.6,63.2,29.57,SSW,209,11.0,18.0,70,0.00,,,0.00,1160,Wunderground v.1.15,2013-05-20 19:29:00,
2013-05-20 14:31:00,73.9,65.5,29.57,South,184,17.0,17.0,75,0.00,,,0.00,1160,Wunderground v.1.15,2013-05-20 19:31:00,
2013-05-20 14:33:00,74.0,63.6,29.57,SSW,196,10.0,17.0,70,0.00,,,0.00,441,Wunderground v.1.15,2013-05-20 19:33:00,
2013-05-20 14:34:00,73.7,62.5,29.57,SW,219,9.0,17.0,68,0.00,,,0.00,441,Wunderground v.1.15,2013-05-20 19:34:00,
2013-05-20 14:36:00,73.6,63.2,29.57,SW,223,12.0,17.0,70,0.00,,,0.00,441,Wunderground v.1.15,2013-05-20 19:36:00,
2013-05-20 14:38:00,73.8,63.4,29.57,SW,217,12.0,19.0,70,0.00,,,0.00,441,Wunderground v.1.15,2013-05-20 19:38:00,
2013-05-20 14:39:00,73.9,63.9,29.57,SW,228,12.0,19.0,71,0.00,,,0.00,1125,Wunderground v.1.15,2013-05-20 19:39:00,
2013-05-20 14:40:00,74.1,63.3,29.57,South,175,9.0,13.0,69,0.00,,,0.00,1125,Wunderground v.1.15,2013-05-20 19:40:00,
2013-05-20 14:42:00,74.2,64.2,29.57,SW,224,14.0,14.0,71,0.00,,,0.00,1125,Wunderground v.1.15,2013-05-20 19:42:00,
2013-05-20 14:44:00,74.0,63.6,29.57,SSW,205,15.0,15.0,70,0.00,,,0.00,1125,Wunderground v.1.15,2013-05-20 19:44:00,
2013-05-20 14:45:00,73.9,63.9,29.57,SSW,207,8.0,15.0,71,0.00,,,0.00,1125,Wunderground v.1.15,2013-05-20 19:45:00,
2013-05-20 14:47:00,73.8,63.4,29.57,SSW,211,7.0,15.0,70,0.00,,,0.00,338,Wunderground v.1.15,2013-05-20 19:47:00,
2013-05-20 14:48:00,73.6,63.2,29.57,SSW,204,11.0,16.0,70,0.00,,,0.00,439,Wunderground v.1.15,2013-05-20 19:48:00,
2013-05-20 14:50:00,73.6,64.4,29.57,South,190,11.0,16.0,73,0.00,,,0.00,439,Wunderground v.1.15,2013-05-20 19:50:00,
2013-05-20 14:51:00,73.8,64.6,29.57,SSW,205,16.0,16.0,73,0.00,,,0.00,1209,Wunderground v.1.15,2013-05-20 19:51:00,
2013-05-20 14:53:00,74.1,64.1,29.57,SW,215,15.0,16.0,71,0.00,,,0.00,1209,Wunderground v.1.15,2013-05-20 19:53:00,
2013-05-20 14:55:00,73.9,62.7,29.57,SW,215,12.0,16.0,68,0.00,,,0.00,461,Wunderground v.1.15,2013-05-20 19:55:00,
2013-05-20 14:56:00,73.8,62.6,29.57,SW,221,12.0,16.0,68,0.00,,,0.00,461,Wunderground v.1.15,2013-05-20 19:56:00,
2013-05-20 14:58:00,73.9,63.5,29.57,SW,216,13.0,19.0,70,0.00,,,0.00,1204,Wunderground v.1.15,2013-05-20 19:58:00,
2013-05-20 14:59:00,74.1,63.7,29.57,SSW,202,15.0,19.0,70,0.00,,,0.00,1204,Wunderground v.1.15,2013-05-20 19:59:00,
2013-05-20 15:01:00,74.5,64.1,29.57,South,181,12.0,15.0,70,0.00,,,0.00,1120,Wunderground v.1.15,2013-05-20 20:01:00,
2013-05-20 15:02:00,74.5,63.2,29.57,SW,219,11.0,15.0,68,0.00,,,0.00,1120,Wunderground v.1.15,2013-05-20 20:02:00,
2013-05-20 15:04:00,74.3,63.9,29.57,SSW,205,9.0,16.0,70,0.00,,,0.00,420,Wunderground v.1.15,2013-05-20 20:04:00,
2013-05-20 15:06:00,74.4,64.8,29.57,SSW,198,17.0,17.0,72,0.00,,,0.00,1016,Wunderground v.1.15,2013-05-20 20:06:00,
2013-05-20 15:07:00,74.4,64.4,29.57,SW,214,19.0,19.0,71,0.00,,,0.00,1016,Wunderground v.1.15,2013-05-20 20:07:00,
2013-05-20 15:09:00,74.0,62.8,29.57,South,190,15.0,19.0,68,0.00,,,0.00,1016,Wunderground v.1.15,2013-05-20 20:09:00,
2013-05-20 15:10:00,74.0,63.6,29.57,SSW,211,14.0,19.0,70,0.00,,,0.00,1072,Wunderground v.1.15,2013-05-20 20:10:00,
2013-05-20 15:11:00,74.1,62.9,29.57,SSW,200,9.0,14.0,68,0.00,,,0.00,1072,Wunderground v.1.15,2013-05-20 20:11:00,
2013-05-20 15:12:00,74.3,63.1,29.57,SSW,209,9.0,14.0,68,0.00,,,0.00,1072,Wunderground v.1.15,2013-05-20 20:12:00,
2013-05-20 15:14:00,74.6,64.2,29.57,SW,223,12.0,17.0,70,0.00,,,0.00,1088,Wunderground v.1.15,2013-05-20 20:14:00,
2013-05-20 15:15:00,74.4,64.4,29.56,South,188,10.0,17.0,71,0.00,,,0.00,1088,Wunderground v.1.15,2013-05-20 20:15:00,
2013-05-20 15:16:00,74.3,64.7,29.57,SW,224,16.0,17.0,72,0.00,,,0.00,1088,Wunderground v.1.15,2013-05-20 20:16:00,
2013-05-20 15:17:00,74.1,63.7,29.57,SSW,201,9.0,17.0,70,0.00,,,0.00,1088,Wunderground v.1.15,2013-05-20 20:17:00,
2013-05-20 15:20:00,73.7,63.3,29.57,SSW,209,7.0,14.0,70,0.00,,,0.00,313,Wunderground v.1.15,2013-05-20 20:20:00,
2013-05-20 15:21:00,73.7,65.3,29.57,SSW,213,9.0,14.0,75,0.00,,,0.00,313,Wunderground v.1.15,2013-05-20 20:21:00,
2013-05-20 15:22:00,73.8,65.4,29.57,SSW,206,8.0,14.0,75,0.00,,,0.00,313,Wunderground v.1.15,2013-05-20 20:22:00,
2013-05-20 15:24:00,74.2,64.6,29.56,SSW,202,14.0,14.0,72,0.00,,,0.00,313,Wunderground v.1.15,2013-05-20 20:24:00,
2013-05-20 15:26:00,74.0,64.0,29.56,SSW,211,14.0,15.0,71,0.00,,,0.00,313,Wunderground v.1.15,2013-05-20 20:26:00,
2013-05-20 15:27:00,73.9,64.7,29.56,South,184,13.0,15.0,73,0.00,,,0.00,313,Wunderground v.1.15,2013-05-20 20:27:00,
2013-05-20 15:30:00,74.3,65.9,29.57,SSW,196,12.0,16.0,75,0.00,,,0.00,501,Wunderground v.1.15,2013-05-20 20:30:00,
2013-05-20 15:32:00,74.4,64.8,29.57,South,181,14.0,16.0,72,0.00,,,0.00,501,Wunderground v.1.15,2013-05-20 20:32:00,
2013-05-20 15:33:00,74.1,63.7,29.57,SSW,198,13.0,16.0,70,0.00,,,0.00,325,Wunderground v.1.15,2013-05-20 20:33:00,
2013-05-20 15:36:00,73.2,62.4,29.57,South,180,14.0,18.0,69,0.00,,,0.00,438,Wunderground v.1.15,2013-05-20 20:36:00,
2013-05-20 15:37:00,73.1,62.3,29.57,SSE,163,12.0,18.0,69,0.00,,,0.00,438,Wunderground v.1.15,2013-05-20 20:37:00,
2013-05-20 15:38:00,73.0,62.6,29.56,South,186,14.0,18.0,70,0.00,,,0.00,438,Wunderground v.1.15,2013-05-20 20:38:00,
2013-05-20 15:39:00,72.8,63.6,29.57,South,189,16.0,18.0,73,0.00,,,0.00,348,Wunderground v.1.15,2013-05-20 20:39:00,
2013-05-20 15:42:00,72.7,62.8,29.57,SSW,198,10.0,21.0,71,0.00,,,0.00,381,Wunderground v.1.15,2013-05-20 20:42:00,
2013-05-20 15:44:00,72.6,62.7,29.57,South,181,13.0,21.0,71,0.00,,,0.00,380,Wunderground v.1.15,2013-05-20 20:44:00,
2013-05-20 15:48:00,72.6,62.3,29.56,SSW,196,10.0,21.0,70,0.00,,,0.00,441,Wunderground v.1.15,2013-05-20 20:48:00,
2013-05-20 15:49:00,72.7,62.3,29.56,SSW,204,15.0,21.0,70,0.00,,,0.00,441,Wunderground v.1.15,2013-05-20 20:49:00,
2013-05-20 15:52:00,73.1,63.5,29.56,SSW,207,10.0,15.0,72,0.00,,,0.00,441,Wunderground v.1.15,2013-05-20 20:52:00,
2013-05-20 15:54:00,73.1,63.5,29.57,SSW,194,14.0,16.0,72,0.00,,,0.00,441,Wunderground v.1.15,2013-05-20 20:54:00,
2013-05-20 15:56:00,73.1,63.1,29.56,South,182,12.0,16.0,71,0.00,,,0.00,441,Wunderground v.1.15,2013-05-20 20:56:00,
2013-05-20 15:58:00,73.4,63.4,29.56,SSW,199,11.0,19.0,71,0.00,,,0.00,807,Wunderground v.1.15,2013-05-20 20:58:00,
2013-05-20 16:00:00,73.5,63.1,29.56,SSW,201,13.0,13.0,70,0.00,,,0.00,691,Wunderground v.1.15,2013-05-20 21:00:00,
2013-05-20 16:01:00,73.5,63.1,29.56,SSW,209,14.0,14.0,70,0.00,,,0.00,691,Wunderground v.1.15,2013-05-20 21:01:00,
2013-05-20 16:02:00,73.5,61.9,29.56,SW,215,16.0,16.0,67,0.00,,,0.00,835,Wunderground v.1.15,2013-05-20 21:02:00,
2013-05-20 16:03:00,73.6,62.8,29.56,SW,215,12.0,16.0,69,0.00,,,0.00,744,Wunderground v.1.15,2013-05-20 21:03:00,
2013-05-20 16:05:00,73.7,62.1,29.56,SSW,198,12.0,18.0,67,0.00,,,0.00,744,Wunderground v.1.15,2013-05-20 21:05:00,
2013-05-20 16:07:00,73.9,62.7,29.56,SW,219,10.0,18.0,68,0.00,,,0.00,763,Wunderground v.1.15,2013-05-20 21:07:00,
2013-05-20 16:08:00,74.0,62.8,29.56,South,189,14.0,18.0,68,0.00,,,0.00,816,Wunderground v.1.15,2013-05-20 21:08:00,
2013-05-20 16:10:00,74.1,62.9,29.56,SSW,206,12.0,13.0,68,0.00,,,0.00,779,Wunderground v.1.15,2013-05-20 21:10:00,
2013-05-20 16:11:00,74.1,62.9,29.56,SSW,198,13.0,17.0,68,0.00,,,0.00,786,Wunderground v.1.15,2013-05-20 21:11:00,
2013-05-20 16:12:00,74.1,62.9,29.56,SSW,202,16.0,17.0,68,0.00,,,0.00,786,Wunderground v.1.15,2013-05-20 21:12:00,
2013-05-20 16:14:00,74.1,62.9,29.56,SW,236,16.0,19.0,68,0.00,,,0.00,390,Wunderground v.1.15,2013-05-20 21:14:00,
2013-05-20 16:17:00,74.1,63.7,29.56,SW,231,9.0,19.0,70,0.00,,,0.00,779,Wunderground v.1.15,2013-05-20 21:17:00,
2013-05-20 16:18:00,74.2,63.8,29.56,SW,215,13.0,19.0,70,0.00,,,0.00,765,Wunderground v.1.15,2013-05-20 21:18:00,
2013-05-20 16:20:00,74.5,64.5,29.56,SW,232,8.0,13.0,71,0.00,,,0.00,735,Wunderground v.1.15,2013-05-20 21:20:00,
2013-05-20 16:23:00,74.5,63.7,29.56,SW,229,12.0,17.0,69,0.00,,,0.00,722,Wunderground v.1.15,2013-05-20 21:23:00,
2013-05-20 16:24:00,74.5,63.7,29.56,SW,217,11.0,17.0,69,0.00,,,0.00,721,Wunderground v.1.15,2013-05-20 21:24:00,
2013-05-20 16:27:00,74.6,63.8,29.55,SW,232,12.0,17.0,69,0.00,,,0.00,715,Wunderground v.1.15,2013-05-20 21:27:00,
2013-05-20 16:28:00,74.5,63.7,29.55,SW,216,18.0,18.0,69,0.00,,,0.00,705,Wunderground v.1.15,2013-05-20 21:28:00,
2013-05-20 16:31:00,74.3,63.5,29.55,SW,215,11.0,14.0,69,0.00,,,0.00,638,Wunderground v.1.15,2013-05-20 21:31:00,
2013-05-20 16:32:00,74.2,63.4,29.55,WSW,238,12.0,16.0,69,0.00,,,0.00,638,Wunderground v.1.15,2013-05-20 21:32:00,
2013-05-20 16:33:00,74.2,63.0,29.55,SW,223,13.0,16.0,68,0.00,,,0.00,638,Wunderground v.1.15,2013-05-20 21:33:00,
2013-05-20 16:36:00,74.1,62.9,29.55,WSW,246,11.0,18.0,68,0.00,,,0.00,691,Wunderground v.1.15,2013-05-20 21:36:00,
2013-05-20 16:38:00,74.2,63.8,29.55,SW,235,11.0,18.0,70,0.00,,,0.00,596,Wunderground v.1.15,2013-05-20 21:38:00,
2013-05-20 16:39:00,74.2,62.5,29.55,SSW,211,10.0,18.0,67,0.00,,,0.00,536,Wunderground v.1.15,2013-05-20 21:39:00,
2013-05-20 16:41:00,74.1,63.3,29.54,SW,218,13.0,13.0,69,0.00,,,0.00,698,Wunderground v.1.15,2013-05-20 21:41:00,
2013-05-20 16:43:00,74.3,63.9,29.54,SW,219,12.0,13.0,70,0.00,,,0.00,687,Wunderground v.1.15,2013-05-20 21:43:00,
2013-05-20 16:44:00,74.4,62.7,29.54,SW,221,10.0,14.0,67,0.00,,,0.00,664,Wunderground v.1.15,2013-05-20 21:44:00,
2013-05-20 16:45:00,74.4,62.7,29.54,SW,220,11.0,14.0,67,0.00,,,0.00,661,Wunderground v.1.15,2013-05-20 21:45:00,
2013-05-20 16:46:00,74.4,63.6,29.54,SW,225,12.0,14.0,69,0.00,,,0.00,647,Wunderground v.1.15,2013-05-20 21:46:00,
2013-05-20 16:50:00,74.6,63.3,29.54,SW,218,9.0,11.0,68,0.00,,,0.00,659,Wunderground v.1.15,2013-05-20 21:50:00,
2013-05-20 16:51:00,74.6,63.3,29.54,SW,227,8.0,11.0,68,0.00,,,0.00,645,Wunderground v.1.15,2013-05-20 21:51:00,
2013-05-20 16:52:00,74.7,64.7,29.54,SW,235,11.0,11.0,71,0.00,,,0.00,645,Wunderground v.1.15,2013-05-20 21:52:00,
2013-05-20 16:55:00,74.7,63.9,29.53,WSW,244,13.0,14.0,69,0.00,,,0.00,645,Wunderground v.1.15,2013-05-20 21:55:00,
2013-05-20 16:56:00,74.7,63.9,29.53,WSW,246,11.0,14.0,69,0.00,,,0.00,610,Wunderground v.1.15,2013-05-20 21:56:00,
2013-05-20 16:57:00,74.7,63.9,29.53,SW,235,12.0,14.0,69,0.00,,,0.00,610,Wunderground v.1.15,2013-05-20 21:57:00,
2013-05-20 16:59:00,74.7,65.1,29.54,WSW,242,11.0,14.0,72,0.00,,,0.00,647,Wunderground v.1.15,2013-05-20 21:59:00,
2013-05-20 17:00:00,74.7,63.4,29.54,WSW,238,8.0,14.0,68,0.00,,,0.00,661,Wunderground v.1.15,2013-05-20 22:00:00,
2013-05-20 17:01:00,74.8,63.5,29.54,WSW,246,17.0,17.0,68,0.00,,,0.00,645,Wunderground v.1.15,2013-05-20 22:01:00,
2013-05-20 17:03:00,74.9,64.0,29.54,WSW,244,12.0,17.0,69,0.00,,,0.00,656,Wunderground v.1.15,2013-05-20 22:03:00,
2013-05-20 17:05:00,74.8,63.5,29.54,SW,228,11.0,17.0,68,0.00,,,0.00,621,Wunderground v.1.15,2013-05-20 22:05:00,
2013-05-20 17:06:00,74.7,63.4,29.53,SW,225,10.0,17.0,68,0.00,,,0.00,619,Wunderground v.1.15,2013-05-20 22:06:00,
2013-05-20 17:07:00,74.7,63.9,29.53,WSW,239,9.0,17.0,69,0.00,,,0.00,610,Wunderground v.1.15,2013-05-20 22:07:00,
2013-05-20 17:08:00,74.7,63.0,29.53,WSW,243,12.0,17.0,67,0.00,,,0.00,601,Wunderground v.1.15,2013-05-20 22:08:00,
2013-05-20 17:11:00,74.9,63.6,29.53,SW,226,10.0,12.0,68,0.00,,,0.00,598,Wunderground v.1.15,2013-05-20 22:11:00,
2013-05-20 17:12:00,74.9,63.6,29.53,SW,230,9.0,12.0,68,0.00,,,0.00,563,Wunderground v.1.15,2013-05-20 22:12:00,
2013-05-20 17:13:00,74.9,64.0,29.53,WSW,239,8.0,12.0,69,0.00,,,0.00,563,Wunderground v.1.15,2013-05-20 22:13:00,
2013-05-20 17:17:00,75.0,63.7,29.53,WSW,246,10.0,12.0,68,0.00,,,0.00,480,Wunderground v.1.15,2013-05-20 22:17:00,
2013-05-20 17:18:00,74.9,63.6,29.53,SW,236,9.0,12.0,68,0.00,,,0.00,480,Wunderground v.1.15,2013-05-20 22:18:00,
2013-05-20 17:19:00,74.8,63.9,29.53,SW,229,6.0,12.0,69,0.00,,,0.00,480,Wunderground v.1.15,2013-05-20 22:19:00,
2013-05-20 17:23:00,74.8,63.9,29.53,WSW,238,13.0,17.0,69,0.00,,,0.00,573,Wunderground v.1.15,2013-05-20 22:23:00,
2013-05-20 17:24:00,74.8,64.4,29.53,WSW,243,7.0,17.0,70,0.00,,,0.00,566,Wunderground v.1.15,2013-05-20 22:24:00,
2013-05-20 17:28:00,74.9,63.6,29.52,SW,221,11.0,17.0,68,0.00,,,0.00,543,Wunderground v.1.15,2013-05-20 22:28:00,
2013-05-20 17:30:00,74.9,64.0,29.52,SW,234,10.0,17.0,69,0.00,,,0.00,531,Wunderground v.1.15,2013-05-20 22:30:00,
2013-05-20 17:31:00,74.9,63.6,29.52,SW,214,9.0,10.0,68,0.00,,,0.00,526,Wunderground v.1.15,2013-05-20 22:31:00,
2013-05-20 17:34:00,74.9,64.5,29.52,SW,227,10.0,10.0,70,0.00,,,0.00,517,Wunderground v.1.15,2013-05-20 22:34:00,
2013-05-20 17:37:00,74.9,65.3,29.53,WSW,239,10.0,10.0,72,0.00,,,0.00,443,Wunderground v.1.15,2013-05-20 22:37:00,
2013-05-20 17:38:00,74.9,64.5,29.52,SW,236,9.0,11.0,70,0.00,,,0.00,519,Wunderground v.1.15,2013-05-20 22:38:00,
2013-05-20 17:39:00,74.9,64.5,29.52,SW,221,7.0,11.0,70,0.00,,,0.00,519,Wunderground v.1.15,2013-05-20 22:39:00,
2013-05-20 17:40:00,74.9,64.0,29.52,SW,227,10.0,12.0,69,0.00,,,0.00,540,Wunderground v.1.15,2013-05-20 22:40:00,
2013-05-20 17:43:00,75.0,64.5,29.52,SW,216,8.0,12.0,70,0.00,,,0.00,554,Wunderground v.1.15,2013-05-20 22:43:00,
2013-05-20 17:45:00,75.2,64.7,29.52,SW,219,5.0,12.0,70,0.00,,,0.00,582,Wunderground v.1.15,2013-05-20 22:45:00,
2013-05-20 17:47:00,75.4,64.9,29.52,WSW,240,11.0,13.0,70,0.00,,,0.00,548,Wunderground v.1.15,2013-05-20 22:47:00,
2013-05-20 17:49:00,75.4,64.5,29.52,SW,215,9.0,13.0,69,0.00,,,0.00,540,Wunderground v.1.15,2013-05-20 22:49:00,
2013-05-20 17:50:00,75.3,64.4,29.52,SW,216,8.0,9.0,69,0.00,,,0.00,487,Wunderground v.1.15,2013-05-20 22:50:00,
2013-05-20 17:51:00,75.3,64.4,29.52,SW,221,9.0,9.0,69,0.00,,,0.00,473,Wunderground v.1.15,2013-05-20 22:51:00,
2013-05-20 17:54:00,75.1,64.2,29.52,SW,224,12.0,12.0,69,0.00,,,0.00,448,Wunderground v.1.15,2013-05-20 22:54:00,
2013-05-20 17:56:00,75.0,64.5,29.51,SW,216,6.0,12.0,70,0.00,,,0.00,434,Wunderground v.1.15,2013-05-20 22:56:00,
2013-05-20 17:57:00,75.0,64.5,29.51,SSW,202,6.0,12.0,70,0.00,,,0.00,432,Wunderground v.1.15,2013-05-20 22:57:00,
2013-05-20 17:59:00,74.9,64.5,29.51,SW,228,7.0,12.0,70,0.00,,,0.00,425,Wunderground v.1.15,2013-05-20 22:59:00,
2013-05-20 18:00:00,74.8,63.9,29.51,WSW,238,8.0,8.0,69,0.00,,,0.00,427,Wunderground v.1.15,2013-05-20 23:00:00,
2013-05-20 18:01:00,74.8,63.9,29.51,SSW,211,7.0,8.0,69,0.00,,,0.00,425,Wunderground v.1.15,2013-05-20 23:01:00,
2013-05-20 18:03:00,74.8,64.4,29.51,SSW,210,6.0,8.0,70,0.00,,,0.00,420,Wunderground v.1.15,2013-05-20 23:03:00,
2013-05-20 18:05:00,74.8,64.8,29.51,SW,217,7.0,8.0,71,0.00,,,0.00,420,Wunderground v.1.15,2013-05-20 23:05:00,
2013-05-20 18:06:00,74.8,63.5,29.51,SW,226,6.0,8.0,68,0.00,,,0.00,420,Wunderground v.1.15,2013-05-20 23:06:00,
2013-05-20 18:08:00,74.8,64.4,29.50,SW,217,4.0,8.0,70,0.00,,,0.00,410,Wunderground v.1.15,2013-05-20 23:08:00,
2013-05-20 18:09:00,74.8,64.8,29.50,SW,223,6.0,8.0,71,0.00,,,0.00,410,Wunderground v.1.15,2013-05-20 23:09:00,
2013-05-20 18:12:00,74.9,64.5,29.49,SW,222,7.0,9.0,70,0.00,,,0.00,411,Wunderground v.1.15,2013-05-20 23:12:00,
2013-05-20 18:13:00,74.8,64.4,29.49,SW,215,6.0,9.0,70,0.00,,,0.00,411,Wunderground v.1.15,2013-05-20 23:13:00,
2013-05-20 18:14:00,74.9,64.9,29.48,SW,230,6.0,9.0,71,0.00,,,0.00,411,Wunderground v.1.15,2013-05-20 23:14:00,
2013-05-20 18:19:00,75.0,65.0,29.48,WSW,237,9.0,11.0,71,0.00,,,0.00,413,Wunderground v.1.15,2013-05-20 23:19:00,
2013-05-20 18:20:00,75.0,64.1,29.48,WSW,241,7.0,11.0,69,0.00,,,0.00,413,Wunderground v.1.15,2013-05-20 23:20:00,
2013-05-20 18:21:00,75.0,64.5,29.48,WSW,245,10.0,11.0,70,0.00,,,0.00,413,Wunderground v.1.15,2013-05-20 23:21:00,
2013-05-20 18:23:00,75.1,64.6,29.49,WSW,244,8.0,11.0,70,0.00,,,0.00,406,Wunderground v.1.15,2013-05-20 23:23:00,
2013-05-20 18:25:00,75.1,65.1,29.49,SW,232,5.0,11.0,71,0.00,,,0.00,417,Wunderground v.1.15,2013-05-20 23:25:00,
2013-05-20 18:26:00,75.1,64.6,29.49,SW,214,8.0,11.0,70,0.00,,,0.00,427,Wunderground v.1.15,2013-05-20 23:26:00,
2013-05-20 18:28:00,75.1,64.6,29.49,WSW,239,9.0,11.0,70,0.00,,,0.00,439,Wunderground v.1.15,2013-05-20 23:28:00,
2013-05-20 18:30:00,75.2,64.7,29.48,WSW,238,6.0,8.0,70,0.00,,,0.00,424,Wunderground v.1.15,2013-05-20 23:30:00,
2013-05-20 18:31:00,75.2,64.7,29.48,WSW,243,6.0,8.0,70,0.00,,,0.00,406,Wunderground v.1.15,2013-05-20 23:31:00,
2013-05-20 18:32:00,75.2,65.1,29.48,WSW,242,9.0,9.0,71,0.00,,,0.00,406,Wunderground v.1.15,2013-05-20 23:32:00,
2013-05-20 18:33:00,75.3,65.6,29.48,SW,236,7.0,9.0,72,0.00,,,0.00,390,Wunderground v.1.15,2013-05-20 23:33:00,
2013-05-20 18:34:00,75.3,64.8,29.48,WSW,240,8.0,9.0,70,0.00,,,0.00,390,Wunderground v.1.15,2013-05-20 23:34:00,
2013-05-20 18:36:00,75.2,64.3,29.48,WSW,242,7.0,9.0,69,0.00,,,0.00,373,Wunderground v.1.15,2013-05-20 23:36:00,
2013-05-20 18:37:00,75.0,64.1,29.48,WSW,246,9.0,9.0,69,0.00,,,0.00,371,Wunderground v.1.15,2013-05-20 23:37:00,
2013-05-20 18:39:00,74.9,64.0,29.48,SW,230,5.0,9.0,69,0.00,,,0.00,359,Wunderground v.1.15,2013-05-20 23:39:00,
2013-05-20 18:41:00,74.8,63.9,29.48,West,261,8.0,8.0,69,0.00,,,0.00,343,Wunderground v.1.15,2013-05-20 23:41:00,
2013-05-20 18:42:00,74.8,64.4,29.47,WSW,246,5.0,8.0,70,0.00,,,0.00,343,Wunderground v.1.15,2013-05-20 23:42:00,
2013-05-20 18:43:00,74.8,65.2,29.48,SW,226,5.0,8.0,72,0.00,,,0.00,330,Wunderground v.1.15,2013-05-20 23:43:00,
2013-05-20 18:44:00,74.9,64.0,29.48,SW,223,7.0,8.0,69,0.00,,,0.00,323,Wunderground v.1.15,2013-05-20 23:44:00,
2013-05-20 18:45:00,74.9,64.9,29.48,WSW,238,8.0,8.0,71,0.00,,,0.00,318,Wunderground v.1.15,2013-05-20 23:45:00,
2013-05-20 18:47:00,74.8,64.4,29.47,SW,224,7.0,10.0,70,0.00,,,0.00,311,Wunderground v.1.15,2013-05-20 23:47:00,
2013-05-20 18:48:00,74.8,64.4,29.47,SW,234,8.0,10.0,70,0.00,,,0.00,309,Wunderground v.1.15,2013-05-20 23:48:00,
2013-05-20 18:49:00,74.7,63.9,29.47,SW,232,6.0,10.0,69,0.00,,,0.00,309,Wunderground v.1.15,2013-05-20 23:49:00,
2013-05-20 18:50:00,74.6,62.9,29.46,SW,232,4.0,7.0,67,0.00,,,0.00,299,Wunderground v.1.15,2013-05-20 23:50:00,
2013-05-20 18:53:00,74.6,63.8,29.46,SW,233,3.0,7.0,69,0.00,,,0.00,294,Wunderground v.1.15,2013-05-20 23:53:00,
2013-05-20 18:55:00,74.5,63.2,29.46,SW,233,1.0,7.0,68,0.00,,,0.00,295,Wunderground v.1.15,2013-05-20 23:55:00,
2013-05-20 18:58:00,74.4,62.7,29.46,SW,233,1.0,7.0,67,0.00,,,0.00,295,Wunderground v.1.15,2013-05-20 23:58:00,
2013-05-20 19:01:00,74.0,64.0,29.48,ESE,106,11.0,11.0,71,0.00,,,0.00,334,Wunderground v.1.15,2013-05-21 00:01:00,
2013-05-20 19:02:00,73.7,63.7,29.48,ESE,114,9.0,11.0,71,0.00,,,0.00,346,Wunderground v.1.15,2013-05-21 00:02:00,
2013-05-20 19:03:00,73.0,64.2,29.48,ESE,109,3.0,11.0,74,0.00,,,0.00,346,Wunderground v.1.15,2013-05-21 00:03:00,
2013-05-20 19:04:00,73.0,64.2,29.48,ESE,109,3.0,11.0,74,0.00,,,0.00,346,Wunderground v.1.15,2013-05-21 00:04:00,
2013-05-20 19:07:00,72.2,64.2,29.48,East,99,1.0,11.0,76,0.00,,,0.00,301,Wunderground v.1.15,2013-05-21 00:07:00,
2013-05-20 19:09:00,72.0,64.4,29.48,ESE,113,5.0,11.0,77,0.00,,,0.00,297,Wunderground v.1.15,2013-05-21 00:09:00,
2013-05-20 19:11:00,72.1,64.1,29.48,ESE,115,0.0,5.0,76,0.00,,,0.00,290,Wunderground v.1.15,2013-05-21 00:11:00,
2013-05-20 19:12:00,72.1,64.1,29.48,ESE,119,0.0,5.0,76,0.00,,,0.00,279,Wunderground v.1.15,2013-05-21 00:12:00,
2013-05-20 19:13:00,72.2,64.6,29.48,ESE,117,0.0,5.0,77,0.00,,,0.00,281,Wunderground v.1.15,2013-05-21 00:13:00,
2013-05-20 19:14:00,72.3,64.7,29.49,ESE,115,0.0,5.0,77,0.00,,,0.00,279,Wunderground v.1.15,2013-05-21 00:14:00,
2013-05-20 19:15:00,72.3,64.3,29.49,ESE,117,0.0,5.0,76,0.00,,,0.00,279,Wunderground v.1.15,2013-05-21 00:15:00,
2013-05-20 19:18:00,71.7,64.5,29.49,East,98,0.0,5.0,78,0.00,,,0.00,272,Wunderground v.1.15,2013-05-21 00:18:00,
2013-05-20 19:20:00,71.3,63.7,29.49,ESE,121,0.0,5.0,77,0.00,,,0.00,272,Wunderground v.1.15,2013-05-21 00:20:00,
2013-05-20 19:21:00,71.1,63.5,29.49,ESE,112,0.0,0.0,77,0.00,,,0.00,272,Wunderground v.1.15,2013-05-21 00:21:00,
2013-05-20 19:24:00,70.8,63.6,29.49,ESE,105,0.0,0.0,78,0.00,,,0.00,288,Wunderground v.1.15,2013-05-21 00:24:00,
2013-05-20 19:25:00,70.8,63.6,29.49,ESE,119,0.0,0.0,78,0.00,,,0.00,285,Wunderground v.1.15,2013-05-21 00:25:00,
2013-05-20 19:26:00,70.8,63.6,29.49,SE,127,0.0,0.0,78,0.00,,,0.00,285,Wunderground v.1.15,2013-05-21 00:26:00,
2013-05-20 19:27:00,70.7,63.9,29.49,ESE,105,0.0,0.0,79,0.00,,,0.00,276,Wunderground v.1.15,2013-05-21 00:27:00,
2013-05-20 19:30:00,70.7,63.5,29.48,ESE,113,0.0,0.0,78,0.00,,,0.00,265,Wunderground v.1.15,2013-05-21 00:30:00,
2013-05-20 19:31:00,70.8,63.6,29.48,ESE,117,0.0,0.0,78,0.00,,,0.00,188,Wunderground v.1.15,2013-05-21 00:31:00,
2013-05-20 19:32:00,70.8,63.6,29.48,ESE,117,0.0,0.0,78,0.00,,,0.00,220,Wunderground v.1.15,2013-05-21 00:32:00,
2013-05-20 19:33:00,70.9,63.0,29.48,ESE,117,0.0,0.0,76,0.00,,,0.00,204,Wunderground v.1.15,2013-05-21 00:33:00,
2013-05-20 19:36:00,71.1,63.9,29.48,ESE,117,0.0,0.0,78,0.00,,,0.00,162,Wunderground v.1.15,2013-05-21 00:36:00,
2013-05-20 19:37:00,71.1,63.9,29.48,ESE,117,0.0,0.0,78,0.00,,,0.00,141,Wunderground v.1.15,2013-05-21 00:37:00,
2013-05-20 19:40:00,71.3,63.7,29.48,ESE,105,0.0,0.0,77,0.00,,,0.00,125,Wunderground v.1.15,2013-05-21 00:40:00,
2013-05-20 19:42:00,71.3,63.7,29.49,ESE,113,0.0,0.0,77,0.00,,,0.00,125,Wunderground v.1.15,2013-05-21 00:42:00,
2013-05-20 19:46:00,71.4,64.2,29.49,ESE,115,0.0,0.0,78,0.00,,,0.00,88,Wunderground v.1.15,2013-05-21 00:46:00,
2013-05-20 19:47:00,71.3,64.1,29.49,SE,132,0.0,0.0,78,0.00,,,0.00,88,Wunderground v.1.15,2013-05-21 00:47:00,
2013-05-20 19:48:00,71.4,63.8,29.49,ESE,108,0.0,0.0,77,0.00,,,0.00,72,Wunderground v.1.15,2013-05-21 00:48:00,
2013-05-20 19:52:00,71.2,63.2,29.49,SE,128,0.0,0.0,76,0.00,,,0.00,81,Wunderground v.1.15,2013-05-21 00:52:00,
2013-05-20 19:53:00,71.2,63.2,29.49,SE,127,0.0,0.0,76,0.00,,,0.00,91,Wunderground v.1.15,2013-05-21 00:53:00,
2013-05-20 19:54:00,70.9,63.7,29.49,SE,138,0.0,0.0,78,0.00,,,0.00,95,Wunderground v.1.15,2013-05-21 00:54:00,
2013-05-20 19:55:00,70.8,63.6,29.49,SSE,147,0.0,0.0,78,0.00,,,0.00,93,Wunderground v.1.15,2013-05-21 00:55:00,
2013-05-20 19:58:00,70.5,63.7,29.49,SE,140,0.0,0.0,79,0.00,,,0.00,83,Wunderground v.1.15,2013-05-21 00:58:00,
2013-05-20 20:00:00,70.4,63.9,29.49,South,169,0.0,0.0,80,0.00,,,0.00,93,Wunderground v.1.15,2013-05-21 01:00:00,
2013-05-20 20:01:00,70.3,63.8,29.49,South,173,0.0,0.0,80,0.00,,,0.00,109,Wunderground v.1.15,2013-05-21 01:01:00,
2013-05-20 20:03:00,70.2,64.1,29.50,SSW,198,0.0,0.0,81,0.00,,,0.00,72,Wunderground v.1.15,2013-05-21 01:03:00,
2013-05-20 20:04:00,70.2,64.1,29.50,South,187,0.0,0.0,81,0.00,,,0.00,72,Wunderground v.1.15,2013-05-21 01:04:00,
2013-05-20 20:06:00,70.2,64.4,29.50,South,182,0.0,0.0,82,0.00,,,0.00,60,Wunderground v.1.15,2013-05-21 01:06:00,
2013-05-20 20:08:00,70.1,64.7,29.49,SSW,200,0.0,0.0,83,0.00,,,0.00,32,Wunderground v.1.15,2013-05-21 01:08:00,
2013-05-20 20:10:00,70.0,64.6,29.49,South,175,0.0,0.0,83,0.00,,,0.00,33,Wunderground v.1.15,2013-05-21 01:10:00,
2013-05-20 20:11:00,70.0,64.6,29.49,SSW,193,0.0,0.0,83,0.00,,,0.00,33,Wunderground v.1.15,2013-05-21 01:11:00,
2013-05-20 20:14:00,70.1,64.3,29.49,SSW,207,0.0,0.0,82,0.00,,,0.00,26,Wunderground v.1.15,2013-05-21 01:14:00,
2013-05-20 20:15:00,70.2,64.4,29.49,SSW,192,0.0,0.0,82,0.00,,,0.00,25,Wunderground v.1.15,2013-05-21 01:15:00,
2013-05-20 20:16:00,70.2,64.1,29.48,South,181,0.0,0.0,81,0.00,,,0.00,23,Wunderground v.1.15,2013-05-21 01:16:00,
2013-05-20 20:17:00,70.3,64.2,29.48,South,184,0.0,0.0,81,0.00,,,0.00,19,Wunderground v.1.15,2013-05-21 01:17:00,
2013-05-20 20:22:00,70.3,64.2,29.48,South,182,0.0,0.0,81,0.00,,,0.00,14,Wunderground v.1.15,2013-05-21 01:22:00,
2013-05-20 20:23:00,70.2,64.1,29.48,South,182,0.0,0.0,81,0.00,,,0.00,12,Wunderground v.1.15,2013-05-21 01:23:00,
2013-05-20 20:27:00,69.8,63.7,29.48,South,184,0.0,0.0,81,0.00,,,0.00,9,Wunderground v.1.15,2013-05-21 01:27:00,
2013-05-20 20:28:00,69.8,64.1,29.48,South,178,0.0,0.0,82,0.00,,,0.00,9,Wunderground v.1.15,2013-05-21 01:28:00,
2013-05-20 20:29:00,69.6,63.9,29.48,South,171,0.0,0.0,82,0.00,,,0.00,7,Wunderground v.1.15,2013-05-21 01:29:00,
2013-05-20 20:31:00,69.5,63.8,29.48,South,188,0.0,0.0,82,0.00,,,0.00,5,Wunderground v.1.15,2013-05-21 01:31:00,
2013-05-20 20:32:00,69.4,63.7,29.48,South,174,0.0,0.0,82,0.00,,,0.00,5,Wunderground v.1.15,2013-05-21 01:32:00,
2013-05-20 20:34:00,69.3,63.6,29.48,South,174,0.0,0.0,82,0.00,,,0.00,5,Wunderground v.1.15,2013-05-21 01:34:00,
2013-05-20 20:38:00,68.9,63.5,29.47,South,175,0.0,0.0,83,0.00,,,0.00,0,Wunderground v.1.15,2013-05-21 01:38:00,
2013-05-20 20:39:00,68.8,63.4,29.47,South,180,0.0,0.0,83,0.00,,,0.00,0,Wunderground v.1.15,2013-05-21 01:39:00,
2013-05-20 20:40:00,68.7,63.0,29.48,SSE,167,0.0,0.0,82,0.00,,,0.00,0,Wunderground v.1.15,2013-05-21 01:40:00,
2013-05-20 20:41:00,68.6,62.9,29.47,South,173,0.0,0.0,82,0.00,,,0.00,0,Wunderground v.1.15,2013-05-21 01:41:00,
2013-05-20 20:44:00,68.4,62.7,29.48,South,182,0.0,0.0,82,0.00,,,0.00,0,Wunderground v.1.15,2013-05-21 01:44:00,
2013-05-20 20:45:00,68.4,62.7,29.48,South,183,0.0,0.0,82,0.00,,,0.00,0,Wunderground v.1.15,2013-05-21 01:45:00,
2013-05-20 20:46:00,68.4,63.0,29.47,South,181,0.0,0.0,83,0.00,,,0.00,0,Wunderground v.1.15,2013-05-21 01:46:00,
2013-05-20 20:49:00,67.9,62.5,29.47,South,180,0.0,0.0,83,0.00,,,0.00,0,Wunderground v.1.15,2013-05-21 01:49:00,
2013-05-20 20:51:00,67.7,62.7,29.47,South,171,0.0,0.0,84,0.00,,,0.00,0,Wunderground v.1.15,2013-05-21 01:51:00,
2013-05-20 20:52:00,67.7,62.7,29.47,South,175,0.0,0.0,84,0.00,,,0.00,0,Wunderground v.1.15,2013-05-21 01:52:00,
2013-05-20 20:53:00,67.5,62.5,29.47,South,169,0.0,0.0,84,0.00,,,0.00,0,Wunderground v.1.15,2013-05-21 01:53:00,
2013-05-20 20:55:00,67.3,62.3,29.47,South,173,0.0,0.0,84,0.00,,,0.00,0,Wunderground v.1.15,2013-05-21 01:55:00,
2013-05-20 20:57:00,67.2,61.9,29.47,SSE,161,0.0,0.0,83,0.00,,,0.00,0,Wunderground v.1.15,2013-05-21 01:57:00,
2013-05-20 20:58:00,67.1,61.8,29.47,SSE,166,0.0,0.0,83,0.00,,,0.00,0,Wunderground v.1.15,2013-05-21 01:58:00,
2013-05-20 20:59:00,67.1,62.1,29.47,SSE,165,0.0,0.0,84,0.00,,,0.00,0,Wunderground v.1.15,2013-05-21 01:59:00,
2013-05-20 21:00:00,66.9,61.9,29.47,SSE,165,0.0,0.0,84,0.00,,,0.00,0,Wunderground v.1.15,2013-05-21 02:00:00,
2013-05-20 21:02:00,66.7,62.0,29.47,SSE,161,0.0,0.0,85,0.00,,,0.00,0,Wunderground v.1.15,2013-05-21 02:02:00,
2013-05-20 21:03:00,66.7,62.0,29.47,SSE,161,0.0,0.0,85,0.00,,,0.00,0,Wunderground v.1.15,2013-05-21 02:03:00,
2013-05-20 21:05:00,66.5,61.8,29.47,SSE,157,0.0,0.0,85,0.00,,,0.00,0,Wunderground v.1.15,2013-05-21 02:05:00,
2013-05-20 21:07:00,66.5,61.8,29.47,SE,145,0.0,0.0,85,0.00,,,0.00,0,Wunderground v.1.15,2013-05-21 02:07:00,
2013-05-20 21:10:00,66.5,61.5,29.47,SSE,155,0.0,0.0,84,0.00,,,0.00,0,Wunderground v.1.15,2013-05-21 02:10:00,
2013-05-20 21:11:00,66.5,61.5,29.47,SSE,164,0.0,0.0,84,0.00,,,0.00,0,Wunderground v.1.15,2013-05-21 02:11:00,
2013-05-20 21:12:00,66.5,61.5,29.47,SSE,158,0.0,0.0,84,0.00,,,0.00,0,Wunderground v.1.15,2013-05-21 02:12:00,
2013-05-20 21:14:00,66.4,61.4,29.47,SSE,162,0.0,0.0,84,0.00,,,0.00,0,Wunderground v.1.15,2013-05-21 02:14:00,
2013-05-20 21:16:00,66.3,61.3,29.47,SSE,158,0.0,0.0,84,0.00,,,0.00,0,Wunderground v.1.15,2013-05-21 02:16:00,
2013-05-20 21:17:00,66.3,61.3,29.47,SSE,148,0.0,0.0,84,0.00,,,0.00,0,Wunderground v.1.15,2013-05-21 02:17:00,
2013-05-20 21:18:00,66.2,61.2,29.47,SSE,150,0.0,0.0,84,0.00,,,0.00,0,Wunderground v.1.15,2013-05-21 02:18:00,
2013-05-20 21:19:00,66.2,61.2,29.47,SE,146,0.0,0.0,84,0.00,,,0.00,0,Wunderground v.1.15,2013-05-21 02:19:00,
2013-05-20 21:21:00,66.1,61.5,29.47,SE,143,0.0,0.0,85,0.00,,,0.00,0,Wunderground v.1.15,2013-05-21 02:21:00,
2013-05-20 21:22:00,65.9,61.3,29.47,SE,142,0.0,0.0,85,0.00,,,0.00,0,Wunderground v.1.15,2013-05-21 02:22:00,
2013-05-20 21:23:00,65.9,61.3,29.47,SE,141,0.0,0.0,85,0.00,,,0.00,0,Wunderground v.1.15,2013-05-21 02:23:00,
2013-05-20 21:24:00,65.8,60.8,29.47,ESE,121,0.0,0.0,84,0.00,,,0.00,0,Wunderground v.1.15,2013-05-21 02:24:00,
2013-05-20 21:25:00,65.8,60.8,29.47,SE,136,0.0,0.0,84,0.00,,,0.00,0,Wunderground v.1.15,2013-05-21 02:25:00,
2013-05-20 21:27:00,65.9,60.9,29.48,ESE,118,0.0,0.0,84,0.00,,,0.00,0,Wunderground v.1.15,2013-05-21 02:27:00,
2013-05-20 21:28:00,65.9,60.9,29.48,SSE,148,0.0,0.0,84,0.00,,,0.00,0,Wunderground v.1.15,2013-05-21 02:28:00,
2013-05-20 21:29:00,65.9,60.9,29.48,SE,129,0.0,0.0,84,0.00,,,0.00,0,Wunderground v.1.15,2013-05-21 02:29:00,
2013-05-20 21:30:00,65.9,60.9,29.48,SE,132,0.0,0.0,84,0.00,,,0.00,0,Wunderground v.1.15,2013-05-21 02:30:00,
2013-05-20 21:32:00,65.8,60.8,29.48,SE,125,0.0,0.0,84,0.00,,,0.00,0,Wunderground v.1.15,2013-05-21 02:32:00,
2013-05-20 21:34:00,65.8,60.8,29.48,SE,137,0.0,0.0,84,0.00,,,0.00,0,Wunderground v.1.15,2013-05-21 02:34:00,
2013-05-20 21:37:00,65.6,61.0,29.48,SE,135,0.0,0.0,85,0.00,,,0.00,0,Wunderground v.1.15,2013-05-21 02:37:00,
2013-05-20 21:38:00,65.6,61.0,29.48,SE,136,0.0,0.0,85,0.00,,,0.00,0,Wunderground v.1.15,2013-05-21 02:38:00,
2013-05-20 21:39:00,65.5,60.9,29.48,SE,128,0.0,0.0,85,0.00,,,0.00,0,Wunderground v.1.15,2013-05-21 02:39:00,
2013-05-20 21:40:00,65.5,60.9,29.48,SE,137,0.0,0.0,85,0.00,,,0.00,0,Wunderground v.1.15,2013-05-21 02:40:00,
2013-05-20 21:43:00,65.4,61.1,29.48,SE,142,0.0,0.0,86,0.00,,,0.00,0,Wunderground v.1.15,2013-05-21 02:43:00,
2013-05-20 21:44:00,65.3,61.0,29.48,SE,145,0.0,0.0,86,0.00,,,0.00,0,Wunderground v.1.15,2013-05-21 02:44:00,
2013-05-20 21:45:00,65.3,61.0,29.48,SE,144,0.0,0.0,86,0.00,,,0.00,0,Wunderground v.1.15,2013-05-21 02:45:00,
2013-05-20 21:46:00,65.2,60.9,29.48,SE,140,0.0,0.0,86,0.00,,,0.00,0,Wunderground v.1.15,2013-05-21 02:46:00,
2013-05-20 21:49:00,64.9,60.9,29.47,SE,144,0.0,0.0,87,0.00,,,0.00,0,Wunderground v.1.15,2013-05-21 02:49:00,
2013-05-20 21:50:00,64.9,60.9,29.47,SE,144,0.0,0.0,87,0.00,,,0.00,0,Wunderground v.1.15,2013-05-21 02:50:00,
2013-05-20 21:51:00,64.8,61.2,29.47,SSE,148,0.0,0.0,88,0.00,,,0.00,0,Wunderground v.1.15,2013-05-21 02:51:00,
2013-05-20 21:54:00,64.5,61.2,29.48,SSE,148,0.0,0.0,89,0.00,,,0.00,0,Wunderground v.1.15,2013-05-21 02:54:00,
2013-05-20 21:56:00,64.4,61.1,29.47,SE,144,0.0,0.0,89,0.00,,,0.00,0,Wunderground v.1.15,2013-05-21 02:56:00,
2013-05-20 21:57:00,64.4,61.1,29.47,SSE,148,0.0,0.0,89,0.00,,,0.00,0,Wunderground v.1.15,2013-05-21 02:57:00,
2013-05-20 21:59:00,64.3,61.0,29.47,SSE,148,0.0,0.0,89,0.00,,,0.00,0,Wunderground v.1.15,2013-05-21 02:59:00,
2013-05-20 22:02:00,64.1,61.1,29.48,SSE,148,0.0,0.0,90,0.00,,,0.00,0,Wunderground v.1.15,2013-05-21 03:02:00,
2013-05-20 22:04:00,64.0,61.0,29.48,SSE,148,0.0,0.0,90,0.00,,,0.00,0,Wunderground v.1.15,2013-05-21 03:04:00,
2013-05-20 22:05:00,64.0,61.0,29.47,SSE,148,0.0,0.0,90,0.00,,,0.00,0,Wunderground v.1.15,2013-05-21 03:05:00,
2013-05-20 22:07:00,63.9,60.9,29.47,SSE,148,0.0,0.0,90,0.00,,,0.00,0,Wunderground v.1.15,2013-05-21 03:07:00,
2013-05-20 22:09:00,63.9,61.2,29.47,SSE,148,0.0,0.0,91,0.00,,,0.00,0,Wunderground v.1.15,2013-05-21 03:09:00,
2013-05-20 22:10:00,63.8,61.1,29.47,SSE,148,0.0,0.0,91,0.00,,,0.00,0,Wunderground v.1.15,2013-05-21 03:10:00,
2013-05-20 22:13:00,63.7,61.0,29.47,SSE,148,0.0,0.0,91,0.00,,,0.00,0,Wunderground v.1.15,2013-05-21 03:13:00,
2013-05-20 22:15:00,63.6,60.9,29.47,SSE,163,0.0,0.0,91,0.00,,,0.00,0,Wunderground v.1.15,2013-05-21 03:15:00,
2013-05-20 22:17:00,63.6,61.2,29.47,SSE,163,0.0,0.0,92,0.00,,,0.00,0,Wunderground v.1.15,2013-05-21 03:17:00,
2013-05-20 22:18:00,63.6,61.2,29.47,SSE,167,0.0,0.0,92,0.00,,,0.00,0,Wunderground v.1.15,2013-05-21 03:18:00,
2013-05-20 22:20:00,63.6,61.2,29.47,SSE,167,0.0,0.0,92,0.00,,,0.00,0,Wunderground v.1.15,2013-05-21 03:20:00,
2013-05-20 22:21:00,63.6,61.2,29.47,SSE,167,0.0,0.0,92,0.00,,,0.00,0,Wunderground v.1.15,2013-05-21 03:21:00,
2013-05-20 22:23:00,63.6,61.2,29.47,SSE,167,0.0,0.0,92,0.00,,,0.00,0,Wunderground v.1.15,2013-05-21 03:23:00,
2013-05-20 22:24:00,63.6,61.2,29.47,SSE,167,0.0,0.0,92,0.00,,,0.00,0,Wunderground v.1.15,2013-05-21 03:24:00,
2013-05-20 22:25:00,63.5,61.1,29.47,SSE,167,0.0,0.0,92,0.00,,,0.00,0,Wunderground v.1.15,2013-05-21 03:25:00,
2013-05-20 22:26:00,63.5,61.1,29.47,SSE,167,0.0,0.0,92,0.00,,,0.00,0,Wunderground v.1.15,2013-05-21 03:26:00,
2013-05-20 22:27:00,63.5,61.1,29.47,SSE,167,0.0,0.0,92,0.00,,,0.00,0,Wunderground v.1.15,2013-05-21 03:27:00,
2013-05-20 22:30:00,63.4,61.0,29.47,SSE,167,0.0,0.0,92,0.00,,,0.00,0,Wunderground v.1.15,2013-05-21 03:30:00,
2013-05-20 22:31:00,63.3,60.9,29.47,SSE,167,0.0,0.0,92,0.00,,,0.00,0,Wunderground v.1.15,2013-05-21 03:31:00,
2013-05-20 22:32:00,63.3,60.9,29.47,SSE,167,0.0,0.0,92,0.00,,,0.00,0,Wunderground v.1.15,2013-05-21 03:32:00,
2013-05-20 22:33:00,63.2,60.8,29.47,SSE,166,0.0,0.0,92,0.00,,,0.00,0,Wunderground v.1.15,2013-05-21 03:33:00,
2013-05-20 22:35:00,63.3,61.2,29.47,SSE,158,0.0,0.0,93,0.00,,,0.00,0,Wunderground v.1.15,2013-05-21 03:35:00,
2013-05-20 22:37:00,63.3,61.2,29.47,SSE,157,0.0,0.0,93,0.00,,,0.00,0,Wunderground v.1.15,2013-05-21 03:37:00,
2013-05-20 22:38:00,63.3,61.2,29.47,SSE,157,0.0,0.0,93,0.00,,,0.00,0,Wunderground v.1.15,2013-05-21 03:38:00,
2013-05-20 22:42:00,63.2,61.1,29.48,SSE,157,0.0,0.0,93,0.00,,,0.00,0,Wunderground v.1.15,2013-05-21 03:42:00,
2013-05-20 22:43:00,63.1,61.0,29.48,SSE,157,0.0,0.0,93,0.00,,,0.00,0,Wunderground v.1.15,2013-05-21 03:43:00,
2013-05-20 22:44:00,63.1,61.0,29.48,SSE,157,0.0,0.0,93,0.00,,,0.00,0,Wunderground v.1.15,2013-05-21 03:44:00,
2013-05-20 22:46:00,63.0,60.9,29.48,SSE,157,0.0,0.0,93,0.00,,,0.00,0,Wunderground v.1.15,2013-05-21 03:46:00,
2013-05-20 22:49:00,62.9,60.8,29.48,SSE,157,0.0,0.0,93,0.00,,,0.00,0,Wunderground v.1.15,2013-05-21 03:49:00,
2013-05-20 22:50:00,62.9,60.8,29.48,SSE,157,0.0,0.0,93,0.00,,,0.00,0,Wunderground v.1.15,2013-05-21 03:50:00,
2013-05-20 22:52:00,62.9,60.8,29.48,SSE,157,0.0,0.0,93,0.00,,,0.00,0,Wunderground v.1.15,2013-05-21 03:52:00,
2013-05-20 22:54:00,63.0,61.2,29.48,SSE,157,0.0,0.0,94,0.00,,,0.00,0,Wunderground v.1.15,2013-05-21 03:54:00,
2013-05-20 22:55:00,63.0,61.2,29.48,SSE,157,0.0,0.0,94,0.00,,,0.00,0,Wunderground v.1.15,2013-05-21 03:55:00,
2013-05-20 22:56:00,63.0,61.2,29.48,SSE,157,0.0,0.0,94,0.00,,,0.00,0,Wunderground v.1.15,2013-05-21 03:56:00,
2013-05-20 22:57:00,63.1,61.3,29.48,SSE,157,0.0,0.0,94,0.00,,,0.00,0,Wunderground v.1.15,2013-05-21 03:57:00,
2013-05-20 23:00:00,63.0,60.9,29.48,SSE,156,0.0,0.0,93,0.00,,,0.00,0,Wunderground v.1.15,2013-05-21 04:00:00,
2013-05-20 23:01:00,63.1,61.0,29.48,SSE,156,0.0,0.0,93,0.00,,,0.00,0,Wunderground v.1.15,2013-05-21 04:01:00,
2013-05-20 23:02:00,63.0,60.9,29.49,SSE,155,0.0,0.0,93,0.00,,,0.00,0,Wunderground v.1.15,2013-05-21 04:02:00,
2013-05-20 23:03:00,63.1,61.3,29.49,South,175,0.0,0.0,94,0.00,,,0.00,0,Wunderground v.1.15,2013-05-21 04:03:00,
2013-05-20 23:07:00,63.3,61.5,29.49,SSE,165,0.0,0.0,94,0.00,,,0.00,0,Wunderground v.1.15,2013-05-21 04:07:00,
2013-05-20 23:08:00,63.4,61.6,29.49,SSE,161,0.0,0.0,94,0.00,,,0.00,0,Wunderground v.1.15,2013-05-21 04:08:00,
2013-05-20 23:09:00,63.4,61.3,29.49,SSE,159,0.0,0.0,93,0.00,,,0.00,0,Wunderground v.1.15,2013-05-21 04:09:00,
2013-05-20 23:11:00,63.5,61.4,29.49,SSE,161,0.0,0.0,93,0.00,,,0.00,0,Wunderground v.1.15,2013-05-21 04:11:00,
2013-05-20 23:12:00,63.5,61.4,29.49,SSE,155,0.0,0.0,93,0.00,,,0.00,0,Wunderground v.1.15,2013-05-21 04:12:00,
2013-05-20 23:13:00,63.5,61.4,29.49,SSE,161,0.0,0.0,93,0.00,,,0.00,0,Wunderground v.1.15,2013-05-21 04:13:00,
2013-05-20 23:14:00,63.5,61.4,29.49,SSE,163,0.0,0.0,93,0.00,,,0.00,0,Wunderground v.1.15,2013-05-21 04:14:00,
2013-05-20 23:15:00,63.5,61.4,29.49,SSE,163,0.0,0.0,93,0.00,,,0.00,0,Wunderground v.1.15,2013-05-21 04:15:00,
2013-05-20 23:16:00,63.5,61.4,29.49,SSE,167,0.0,0.0,93,0.00,,,0.00,0,Wunderground v.1.15,2013-05-21 04:16:00,
2013-05-20 23:19:00,63.4,61.0,29.49,SSE,167,0.0,0.0,92,0.00,,,0.00,0,Wunderground v.1.15,2013-05-21 04:19:00,
2013-05-20 23:20:00,63.4,61.0,29.49,SSE,167,0.0,0.0,92,0.00,,,0.00,0,Wunderground v.1.15,2013-05-21 04:20:00,
2013-05-20 23:22:00,63.4,61.0,29.49,SSE,163,0.0,0.0,92,0.00,,,0.00,0,Wunderground v.1.15,2013-05-21 04:22:00,
2013-05-20 23:24:00,63.3,60.9,29.49,SSE,161,0.0,0.0,92,0.00,,,0.00,0,Wunderground v.1.15,2013-05-21 04:24:00,
2013-05-20 23:27:00,63.3,60.9,29.49,South,170,0.0,0.0,92,0.00,,,0.00,0,Wunderground v.1.15,2013-05-21 04:27:00,
2013-05-20 23:28:00,63.4,61.0,29.49,SSE,153,0.0,0.0,92,0.00,,,0.00,0,Wunderground v.1.15,2013-05-21 04:28:00,
2013-05-20 23:32:00,63.6,61.2,29.49,SSE,155,0.0,0.0,92,0.00,,,0.00,0,Wunderground v.1.15,2013-05-21 04:32:00,
2013-05-20 23:33:00,63.6,61.2,29.49,SSE,155,0.0,0.0,92,0.00,,,0.00,0,Wunderground v.1.15,2013-05-21 04:33:00,
2013-05-20 23:34:00,63.6,61.2,29.49,SSE,155,0.0,0.0,92,0.00,,,0.00,0,Wunderground v.1.15,2013-05-21 04:34:00,
2013-05-20 23:37:00,63.6,61.2,29.49,SSE,155,0.0,0.0,92,0.00,,,0.00,0,Wunderground v.1.15,2013-05-21 04:37:00,
2013-05-20 23:38:00,63.6,61.2,29.49,SSE,155,0.0,0.0,92,0.00,,,0.00,0,Wunderground v.1.15,2013-05-21 04:38:00,
2013-05-20 23:39:00,63.5,61.1,29.49,SSE,156,0.0,0.0,92,0.00,,,0.00,0,Wunderground v.1.15,2013-05-21 04:39:00,
2013-05-20 23:42:00,63.5,61.1,29.49,SSE,158,0.0,0.0,92,0.00,,,0.00,0,Wunderground v.1.15,2013-05-21 04:42:00,
2013-05-20 23:43:00,63.5,61.1,29.49,South,178,0.0,0.0,92,0.00,,,0.00,0,Wunderground v.1.15,2013-05-21 04:43:00,
2013-05-20 23:44:00,63.4,61.0,29.49,SSE,161,0.0,0.0,92,0.00,,,0.00,0,Wunderground v.1.15,2013-05-21 04:44:00,
2013-05-20 23:45:00,63.5,61.1,29.49,SSE,161,0.0,0.0,92,0.00,,,0.00,0,Wunderground v.1.15,2013-05-21 04:45:00,
2013-05-20 23:46:00,63.5,61.1,29.49,SSE,161,0.0,0.0,92,0.00,,,0.00,0,Wunderground v.1.15,2013-05-21 04:46:00,
2013-05-20 23:48:00,63.5,60.8,29.49,SSE,161,0.0,0.0,91,0.00,,,0.00,0,Wunderground v.1.15,2013-05-21 04:48:00,
2013-05-20 23:50:00,63.6,60.9,29.49,South,169,0.0,0.0,91,0.00,,,0.00,0,Wunderground v.1.15,2013-05-21 04:50:00,
2013-05-20 23:51:00,63.6,60.9,29.49,SSE,168,0.0,0.0,91,0.00,,,0.00,0,Wunderground v.1.15,2013-05-21 04:51:00,
2013-05-20 23:53:00,63.6,60.9,29.49,SSE,167,0.0,0.0,91,0.00,,,0.00,0,Wunderground v.1.15,2013-05-21 04:53:00,
2013-05-20 23:56:00,63.6,60.9,29.49,SSE,166,0.0,0.0,91,0.00,,,0.00,0,Wunderground v.1.15,2013-05-21 04:56:00,
2013-05-20 23:57:00,63.6,60.9,29.49,SSE,166,0.0,0.0,91,0.00,,,0.00,0,Wunderground v.1.15,2013-05-21 04:57:00,
2013-05-20 23:59:00,63.5,60.8,29.49,SSE,166,0.0,0.0,91,0.00,,,0.00,0,Wunderground v.1.15,2013-05-21 04:59:00,